Wetterdaten: Montag, 15.08.2016
Datum Zeit Temp. A. Feuchte A. Luftdruck Regen Wind Richtung Richtung Sonnenschein ET UV Solar Taupunkt Windchill Windben Empfang
15.08.2016 00:00 18,7 C 87 % 1019,2 hPa 0,0 l/m 3,5 km/h (1 Bft) S-SW 192 0 min 0,000 mm 0,0 UV-I 0 W/m 16,5 C 18,7 C 4,8 km/h (1 Bft) 97,87 %
15.08.2016 00:02 18,7 C 87 % 1019,2 hPa 0,0 l/m 3,7 km/h (1 Bft) S-SW 192 0 min 0,000 mm 0,0 UV-I 0 W/m 16,5 C 18,7 C 4,8 km/h (1 Bft) 97,30 %
15.08.2016 00:04 18,7 C 87 % 1019,2 hPa 0,0 l/m 4,0 km/h (1 Bft) S-SW 192 0 min 0,000 mm 0,0 UV-I 0 W/m 16,5 C 18,7 C 4,8 km/h (1 Bft) 97,87 %
15.08.2016 00:06 18,7 C 87 % 1019,2 hPa 0,0 l/m 4,7 km/h (1 Bft) S-SW 192 0 min 0,000 mm 0,0 UV-I 0 W/m 16,5 C 18,7 C 6,4 km/h (2 Bft) 95,74 %
15.08.2016 00:08 18,7 C 87 % 1019,2 hPa 0,0 l/m 4,3 km/h (1 Bft) S-SW 195 0 min 0,000 mm 0,0 UV-I 0 W/m 16,5 C 18,7 C 6,4 km/h (2 Bft) 97,92 %
15.08.2016 00:10 18,6 C 87 % 1019,2 hPa 0,0 l/m 4,8 km/h (1 Bft) S 180 0 min 0,000 mm 0,0 UV-I 0 W/m 16,4 C 18,6 C 6,4 km/h (2 Bft) 98,00 %
15.08.2016 00:12 18,6 C 87 % 1019,2 hPa 0,0 l/m 4,7 km/h (1 Bft) S 188 0 min 0,000 mm 0,0 UV-I 0 W/m 16,4 C 18,6 C 8,0 km/h (2 Bft) 95,74 %
15.08.2016 00:14 18,6 C 87 % 1019,2 hPa 0,0 l/m 4,5 km/h (1 Bft) S 182 0 min 0,000 mm 0,0 UV-I 0 W/m 16,4 C 18,6 C 6,4 km/h (2 Bft) 95,12 %
15.08.2016 00:16 18,5 C 87 % 1019,1 hPa 0,0 l/m 3,5 km/h (1 Bft) S 184 0 min 0,000 mm 0,0 UV-I 0 W/m 16,3 C 18,5 C 4,8 km/h (1 Bft) 98,21 %
15.08.2016 00:18 18,5 C 87 % 1019,2 hPa 0,0 l/m 2,3 km/h (1 Bft) S 183 0 min 0,000 mm 0,0 UV-I 0 W/m 16,3 C 18,5 C 4,8 km/h (1 Bft) 97,37 %
15.08.2016 00:20 18,4 C 87 % 1019,1 hPa 0,0 l/m 3,6 km/h (1 Bft) S 183 0 min 0,000 mm 0,0 UV-I 0 W/m 16,2 C 18,4 C 4,8 km/h (1 Bft) 98,11 %
15.08.2016 00:22 18,4 C 87 % 1019,1 hPa 0,0 l/m 3,7 km/h (1 Bft) S 183 0 min 0,000 mm 0,0 UV-I 0 W/m 16,2 C 18,4 C 4,8 km/h (1 Bft) 97,92 %
15.08.2016 00:24 18,4 C 87 % 1019,2 hPa 0,0 l/m 3,0 km/h (1 Bft) S 183 0 min 0,000 mm 0,0 UV-I 0 W/m 16,2 C 18,4 C 4,8 km/h (1 Bft) 96,00 %
15.08.2016 00:26 18,4 C 87 % 1019,2 hPa 0,0 l/m 1,8 km/h (1 Bft) S 183 0 min 0,000 mm 0,0 UV-I 0 W/m 16,2 C 18,4 C 3,2 km/h (1 Bft) 100,00 %
15.08.2016 00:28 18,3 C 87 % 1019,2 hPa 0,0 l/m 0,8 km/h (0 Bft) S 183 0 min 0,000 mm 0,0 UV-I 0 W/m 16,1 C 18,3 C 1,6 km/h (1 Bft) 100,00 %
15.08.2016 00:30 18,1 C 88 % 1019,2 hPa 0,0 l/m 1,0 km/h (0 Bft) S 183 0 min 0,000 mm 0,0 UV-I 0 W/m 16,1 C 18,1 C 1,6 km/h (1 Bft) 97,87 %
15.08.2016 00:32 17,9 C 89 % 1019,1 hPa 0,0 l/m 1,3 km/h (1 Bft) S 183 0 min 0,000 mm 0,0 UV-I 0 W/m 16,1 C 17,9 C 1,6 km/h (1 Bft) 98,11 %
15.08.2016 00:34 17,8 C 89 % 1019,1 hPa 0,0 l/m 1,0 km/h (0 Bft) S 183 0 min 0,000 mm 0,0 UV-I 0 W/m 16,0 C 17,8 C 1,6 km/h (1 Bft) 100,00 %
15.08.2016 00:36 17,8 C 89 % 1019,2 hPa 0,0 l/m 0,8 km/h (0 Bft) S 183 0 min 0,000 mm 0,0 UV-I 0 W/m 16,0 C 17,8 C 1,6 km/h (1 Bft) 97,92 %
15.08.2016 00:38 17,8 C 90 % 1019,1 hPa 0,0 l/m 0,9 km/h (0 Bft) S 183 0 min 0,000 mm 0,0 UV-I 0 W/m 16,1 C 17,8 C 1,6 km/h (1 Bft) 97,87 %
15.08.2016 00:40 17,7 C 90 % 1019,1 hPa 0,0 l/m 1,8 km/h (1 Bft) S 183 0 min 0,000 mm 0,0 UV-I 0 W/m 16,0 C 17,7 C 3,2 km/h (1 Bft) 100,00 %
15.08.2016 00:42 17,8 C 90 % 1019,1 hPa 0,0 l/m 1,4 km/h (1 Bft) S 183 0 min 0,000 mm 0,0 UV-I 0 W/m 16,1 C 17,8 C 1,6 km/h (1 Bft) 100,00 %
15.08.2016 00:44 17,7 C 90 % 1019,1 hPa 0,0 l/m 1,2 km/h (1 Bft) S 183 0 min 0,000 mm 0,0 UV-I 0 W/m 16,0 C 17,7 C 1,6 km/h (1 Bft) 100,00 %
15.08.2016 00:46 17,7 C 90 % 1019,1 hPa 0,0 l/m 1,3 km/h (1 Bft) S 183 0 min 0,000 mm 0,0 UV-I 0 W/m 16,0 C 17,7 C 3,2 km/h (1 Bft) 100,00 %
15.08.2016 00:48 17,7 C 90 % 1019,1 hPa 0,0 l/m 0,9 km/h (0 Bft) S 183 0 min 0,000 mm 0,0 UV-I 0 W/m 16,0 C 17,7 C 1,6 km/h (1 Bft) 100,00 %
15.08.2016 00:50 17,7 C 90 % 1019,1 hPa 0,0 l/m 1,2 km/h (1 Bft) S 183 0 min 0,000 mm 0,0 UV-I 0 W/m 16,0 C 17,7 C 1,6 km/h (1 Bft) 100,00 %
15.08.2016 00:52 17,6 C 90 % 1019,1 hPa 0,0 l/m 2,0 km/h (1 Bft) S 183 0 min 0,000 mm 0,0 UV-I 0 W/m 15,9 C 17,6 C 3,2 km/h (1 Bft) 100,00 %
15.08.2016 00:54 17,6 C 89 % 1019,2 hPa 0,0 l/m 2,9 km/h (1 Bft) S 183 0 min 0,000 mm 0,0 UV-I 0 W/m 15,8 C 17,6 C 3,2 km/h (1 Bft) 100,00 %
15.08.2016 00:56 17,4 C 90 % 1019,1 hPa 0,0 l/m 2,8 km/h (1 Bft) S 183 0 min 0,000 mm 0,0 UV-I 0 W/m 15,7 C 17,4 C 3,2 km/h (1 Bft) 100,00 %
15.08.2016 00:58 17,3 C 90 % 1019,1 hPa 0,0 l/m 2,9 km/h (1 Bft) S 183 0 min 0,000 mm 0,0 UV-I 0 W/m 15,6 C 17,3 C 3,2 km/h (1 Bft) 97,87 %
15.08.2016 01:00 17,2 C 90 % 1019,1 hPa 0,0 l/m 2,0 km/h (1 Bft) S 183 0 min 0,000 mm 0,0 UV-I 0 W/m 15,5 C 17,2 C 3,2 km/h (1 Bft) 100,00 %
15.08.2016 01:01 17,3 C 91 % 1019,1 hPa 0,0 l/m 3,4 km/h (1 Bft) S 183 0 min 0,000 mm 0,0 UV-I 0 W/m 15,8 C 17,3 C 4,8 km/h (1 Bft) 100,00 %
15.08.2016 01:04 17,3 C 91 % 1019,1 hPa 0,0 l/m 3,4 km/h (1 Bft) S 183 0 min 0,000 mm 0,0 UV-I 0 W/m 15,8 C 17,3 C 4,8 km/h (1 Bft) 100,00 %
15.08.2016 01:06 17,3 C 90 % 1019,1 hPa 0,0 l/m 3,6 km/h (1 Bft) S 183 0 min 0,000 mm 0,0 UV-I 0 W/m 15,6 C 17,3 C 4,8 km/h (1 Bft) 100,00 %
15.08.2016 01:08 17,3 C 91 % 1019,1 hPa 0,0 l/m 3,5 km/h (1 Bft) S 183 0 min 0,000 mm 0,0 UV-I 0 W/m 15,8 C 17,3 C 4,8 km/h (1 Bft) 100,00 %
15.08.2016 01:10 17,3 C 91 % 1019,1 hPa 0,0 l/m 2,7 km/h (1 Bft) S 183 0 min 0,000 mm 0,0 UV-I 0 W/m 15,8 C 17,3 C 3,2 km/h (1 Bft) 100,00 %
15.08.2016 01:12 17,2 C 91 % 1019,1 hPa 0,0 l/m 3,4 km/h (1 Bft) S 183 0 min 0,000 mm 0,0 UV-I 0 W/m 15,7 C 17,2 C 4,8 km/h (1 Bft) 100,00 %
15.08.2016 01:14 17,1 C 91 % 1019,2 hPa 0,0 l/m 3,6 km/h (1 Bft) S 183 0 min 0,000 mm 0,0 UV-I 0 W/m 15,6 C 17,1 C 4,8 km/h (1 Bft) 100,00 %
15.08.2016 01:16 16,9 C 91 % 1019,2 hPa 0,0 l/m 3,6 km/h (1 Bft) S 184 0 min 0,000 mm 0,0 UV-I 0 W/m 15,4 C 16,9 C 4,8 km/h (1 Bft) 98,00 %
15.08.2016 01:18 16,9 C 92 % 1019,2 hPa 0,0 l/m 3,1 km/h (1 Bft) S 184 0 min 0,000 mm 0,0 UV-I 0 W/m 15,6 C 16,9 C 4,8 km/h (1 Bft) 100,00 %
15.08.2016 01:20 16,9 C 92 % 1019,2 hPa 0,0 l/m 3,3 km/h (1 Bft) S 184 0 min 0,000 mm 0,0 UV-I 0 W/m 15,6 C 16,9 C 4,8 km/h (1 Bft) 100,00 %
15.08.2016 01:22 16,9 C 93 % 1019,2 hPa 0,0 l/m 2,9 km/h (1 Bft) S 184 0 min 0,000 mm 0,0 UV-I 0 W/m 15,8 C 16,9 C 4,8 km/h (1 Bft) 100,00 %
15.08.2016 01:24 16,8 C 92 % 1019,3 hPa 0,0 l/m 2,4 km/h (1 Bft) S 184 0 min 0,000 mm 0,0 UV-I 0 W/m 15,5 C 16,8 C 4,8 km/h (1 Bft) 100,00 %
15.08.2016 01:26 16,8 C 92 % 1019,2 hPa 0,0 l/m 2,6 km/h (1 Bft) S 184 0 min 0,000 mm 0,0 UV-I 0 W/m 15,5 C 16,8 C 4,8 km/h (1 Bft) 100,00 %
15.08.2016 01:28 16,9 C 93 % 1019,2 hPa 0,0 l/m 4,1 km/h (1 Bft) S 184 0 min 0,000 mm 0,0 UV-I 0 W/m 15,8 C 16,9 C 4,8 km/h (1 Bft) 98,08 %
15.08.2016 01:30 17,0 C 92 % 1019,3 hPa 0,0 l/m 2,8 km/h (1 Bft) S 184 0 min 0,000 mm 0,0 UV-I 0 W/m 15,7 C 17,0 C 4,8 km/h (1 Bft) 100,00 %
15.08.2016 01:32 17,1 C 91 % 1019,3 hPa 0,0 l/m 3,9 km/h (1 Bft) N-NO 16 0 min 0,000 mm 0,0 UV-I 0 W/m 15,6 C 17,1 C 12,9 km/h (3 Bft) 100,00 %
15.08.2016 01:34 17,0 C 91 % 1019,4 hPa 0,0 l/m 6,1 km/h (2 Bft) N 9 0 min 0,000 mm 0,0 UV-I 0 W/m 15,5 C 17,0 C 12,9 km/h (3 Bft) 100,00 %
15.08.2016 01:36 17,0 C 92 % 1019,4 hPa 0,0 l/m 4,2 km/h (1 Bft) N-NO 28 0 min 0,000 mm 0,0 UV-I 0 W/m 15,7 C 17,0 C 6,4 km/h (2 Bft) 98,00 %
15.08.2016 01:38 17,0 C 92 % 1019,3 hPa 0,0 l/m 4,4 km/h (1 Bft) NO 35 0 min 0,000 mm 0,0 UV-I 0 W/m 15,7 C 17,0 C 6,4 km/h (2 Bft) 100,00 %
15.08.2016 01:40 17,0 C 91 % 1019,4 hPa 0,0 l/m 8,0 km/h (2 Bft) N-NO 29 0 min 0,000 mm 0,0 UV-I 0 W/m 15,5 C 16,2 C 9,7 km/h (2 Bft) 100,00 %
15.08.2016 01:42 17,0 C 92 % 1019,4 hPa 0,0 l/m 5,9 km/h (2 Bft) N-NO 32 0 min 0,000 mm 0,0 UV-I 0 W/m 15,7 C 17,0 C 8,0 km/h (2 Bft) 98,11 %
15.08.2016 01:44 17,0 C 92 % 1019,3 hPa 0,0 l/m 4,2 km/h (1 Bft) NO 40 0 min 0,000 mm 0,0 UV-I 0 W/m 15,7 C 17,0 C 6,4 km/h (2 Bft) 100,00 %
15.08.2016 01:46 17,0 C 92 % 1019,4 hPa 0,0 l/m 5,1 km/h (1 Bft) NO 52 0 min 0,000 mm 0,0 UV-I 0 W/m 15,7 C 17,0 C 6,4 km/h (2 Bft) 100,00 %
15.08.2016 01:48 17,0 C 92 % 1019,3 hPa 0,0 l/m 5,1 km/h (1 Bft) NO 49 0 min 0,000 mm 0,0 UV-I 0 W/m 15,7 C 17,0 C 6,4 km/h (2 Bft) 100,00 %
15.08.2016 01:50 17,1 C 92 % 1019,4 hPa 0,0 l/m 5,3 km/h (1 Bft) NO 54 0 min 0,000 mm 0,0 UV-I 0 W/m 15,8 C 17,1 C 6,4 km/h (2 Bft) 100,00 %
15.08.2016 01:52 17,1 C 92 % 1019,4 hPa 0,0 l/m 3,5 km/h (1 Bft) NO 40 0 min 0,000 mm 0,0 UV-I 0 W/m 15,8 C 17,1 C 6,4 km/h (2 Bft) 100,00 %
15.08.2016 01:54 17,1 C 92 % 1019,3 hPa 0,0 l/m 3,7 km/h (1 Bft) NO 41 0 min 0,000 mm 0,0 UV-I 0 W/m 15,8 C 17,1 C 4,8 km/h (1 Bft) 100,00 %
15.08.2016 01:56 17,1 C 92 % 1019,4 hPa 0,0 l/m 3,3 km/h (1 Bft) NO 40 0 min 0,000 mm 0,0 UV-I 0 W/m 15,8 C 17,1 C 4,8 km/h (1 Bft) 97,56 %
15.08.2016 01:58 17,0 C 92 % 1019,3 hPa 0,0 l/m 2,0 km/h (1 Bft) NO 40 0 min 0,000 mm 0,0 UV-I 0 W/m 15,7 C 17,0 C 3,2 km/h (1 Bft) 96,00 %
15.08.2016 02:00 17,0 C 92 % 1019,4 hPa 0,0 l/m 2,7 km/h (1 Bft) NO 40 0 min 0,000 mm 0,0 UV-I 0 W/m 15,7 C 17,0 C 3,2 km/h (1 Bft) 98,11 %
15.08.2016 02:02 16,9 C 92 % 1019,4 hPa 0,0 l/m 3,3 km/h (1 Bft) NO 40 0 min 0,000 mm 0,0 UV-I 0 W/m 15,6 C 16,9 C 4,8 km/h (1 Bft) 97,56 %
15.08.2016 02:04 16,8 C 92 % 1019,4 hPa 0,0 l/m 0,4 km/h (0 Bft) NO 40 0 min 0,000 mm 0,0 UV-I 0 W/m 15,5 C 16,8 C 3,2 km/h (1 Bft) 98,00 %
15.08.2016 02:06 16,7 C 92 % 1019,4 hPa 0,0 l/m 0,8 km/h (0 Bft) NO 40 0 min 0,000 mm 0,0 UV-I 0 W/m 15,4 C 16,7 C 3,2 km/h (1 Bft) 98,00 %
15.08.2016 02:08 16,6 C 92 % 1019,4 hPa 0,0 l/m 3,1 km/h (1 Bft) NO 41 0 min 0,000 mm 0,0 UV-I 0 W/m 15,3 C 16,6 C 3,2 km/h (1 Bft) 97,44 %
15.08.2016 02:10 16,6 C 93 % 1019,4 hPa 0,0 l/m 2,8 km/h (1 Bft) NO 40 0 min 0,000 mm 0,0 UV-I 0 W/m 15,5 C 16,6 C 4,8 km/h (1 Bft) 98,00 %
15.08.2016 02:12 16,7 C 94 % 1019,3 hPa 0,0 l/m 2,1 km/h (1 Bft) NO 40 0 min 0,000 mm 0,0 UV-I 0 W/m 15,7 C 16,7 C 3,2 km/h (1 Bft) 96,23 %
15.08.2016 02:14 16,8 C 93 % 1019,3 hPa 0,0 l/m 0,9 km/h (0 Bft) NO 40 0 min 0,000 mm 0,0 UV-I 0 W/m 15,7 C 16,8 C 1,6 km/h (1 Bft) 97,44 %
15.08.2016 02:16 16,7 C 93 % 1019,3 hPa 0,0 l/m 0,9 km/h (0 Bft) NO 40 0 min 0,000 mm 0,0 UV-I 0 W/m 15,6 C 16,7 C 3,2 km/h (1 Bft) 98,00 %
15.08.2016 02:18 16,7 C 93 % 1019,3 hPa 0,0 l/m 2,1 km/h (1 Bft) NO 40 0 min 0,000 mm 0,0 UV-I 0 W/m 15,6 C 16,7 C 3,2 km/h (1 Bft) 97,87 %
15.08.2016 02:20 16,5 C 92 % 1019,4 hPa 0,0 l/m 3,1 km/h (1 Bft) O-NO 58 0 min 0,000 mm 0,0 UV-I 0 W/m 15,2 C 16,5 C 4,8 km/h (1 Bft) 97,56 %
15.08.2016 02:22 16,3 C 92 % 1019,4 hPa 0,0 l/m 3,3 km/h (1 Bft) O-NO 58 0 min 0,000 mm 0,0 UV-I 0 W/m 15,0 C 16,3 C 4,8 km/h (1 Bft) 93,62 %
15.08.2016 02:24 16,3 C 93 % 1019,4 hPa 0,0 l/m 2,5 km/h (1 Bft) O-NO 58 0 min 0,000 mm 0,0 UV-I 0 W/m 15,2 C 16,3 C 3,2 km/h (1 Bft) 97,87 %
15.08.2016 02:26 16,2 C 93 % 1019,3 hPa 0,0 l/m 2,5 km/h (1 Bft) O-NO 58 0 min 0,000 mm 0,0 UV-I 0 W/m 15,1 C 16,2 C 3,2 km/h (1 Bft) 98,11 %
15.08.2016 02:28 16,2 C 93 % 1019,3 hPa 0,0 l/m 3,6 km/h (1 Bft) O-NO 58 0 min 0,000 mm 0,0 UV-I 0 W/m 15,1 C 16,2 C 4,8 km/h (1 Bft) 97,56 %
15.08.2016 02:30 16,1 C 93 % 1019,3 hPa 0,0 l/m 2,5 km/h (1 Bft) O-NO 58 0 min 0,000 mm 0,0 UV-I 0 W/m 15,0 C 16,1 C 4,8 km/h (1 Bft) 98,00 %
15.08.2016 02:32 16,1 C 94 % 1019,3 hPa 0,0 l/m 1,1 km/h (1 Bft) NO 49 0 min 0,000 mm 0,0 UV-I 0 W/m 15,1 C 16,1 C 3,2 km/h (1 Bft) 100,00 %
15.08.2016 02:34 16,2 C 94 % 1019,3 hPa 0,0 l/m 0,3 km/h (0 Bft) NO 49 0 min 0,000 mm 0,0 UV-I 0 W/m 15,2 C 16,2 C 1,6 km/h (1 Bft) 100,00 %
15.08.2016 02:36 16,2 C 94 % 1019,3 hPa 0,0 l/m 0,1 km/h (0 Bft) NO 49 0 min 0,000 mm 0,0 UV-I 0 W/m 15,2 C 16,2 C 1,6 km/h (1 Bft) 100,00 %
15.08.2016 02:38 16,2 C 94 % 1019,2 hPa 0,0 l/m 2,2 km/h (1 Bft) O 91 0 min 0,000 mm 0,0 UV-I 0 W/m 15,2 C 16,2 C 4,8 km/h (1 Bft) 97,37 %
15.08.2016 02:40 16,3 C 94 % 1019,2 hPa 0,0 l/m 5,5 km/h (1 Bft) O-SO 106 0 min 0,000 mm 0,0 UV-I 0 W/m 15,3 C 16,3 C 6,4 km/h (2 Bft) 100,00 %
15.08.2016 02:42 16,3 C 94 % 1019,2 hPa 0,0 l/m 5,9 km/h (2 Bft) O-SO 122 0 min 0,000 mm 0,0 UV-I 0 W/m 15,3 C 16,3 C 6,4 km/h (2 Bft) 100,00 %
15.08.2016 02:44 16,4 C 94 % 1019,2 hPa 0,0 l/m 4,1 km/h (1 Bft) O-SO 123 0 min 0,000 mm 0,0 UV-I 0 W/m 15,4 C 16,4 C 6,4 km/h (2 Bft) 97,22 %
15.08.2016 02:46 16,4 C 94 % 1019,2 hPa 0,0 l/m 0,3 km/h (0 Bft) O-SO 123 0 min 0,000 mm 0,0 UV-I 0 W/m 15,4 C 16,4 C 1,6 km/h (1 Bft) 100,00 %
15.08.2016 02:48 16,4 C 94 % 1019,3 hPa 0,0 l/m 2,6 km/h (1 Bft) N-NO 33 0 min 0,000 mm 0,0 UV-I 0 W/m 15,4 C 16,4 C 4,8 km/h (1 Bft) 97,87 %
15.08.2016 02:50 16,3 C 93 % 1019,3 hPa 0,0 l/m 2,1 km/h (1 Bft) N-NO 25 0 min 0,000 mm 0,0 UV-I 0 W/m 15,2 C 16,3 C 4,8 km/h (1 Bft) 100,00 %
15.08.2016 02:52 16,2 C 94 % 1019,3 hPa 0,0 l/m 3,1 km/h (1 Bft) NO 47 0 min 0,000 mm 0,0 UV-I 0 W/m 15,2 C 16,2 C 4,8 km/h (1 Bft) 100,00 %
15.08.2016 02:54 16,2 C 94 % 1019,2 hPa 0,0 l/m 3,0 km/h (1 Bft) O-NO 61 0 min 0,000 mm 0,0 UV-I 0 W/m 15,2 C 16,2 C 4,8 km/h (1 Bft) 98,00 %
15.08.2016 02:56 16,3 C 95 % 1019,2 hPa 0,0 l/m 2,4 km/h (1 Bft) O-NO 61 0 min 0,000 mm 0,0 UV-I 0 W/m 15,5 C 16,3 C 3,2 km/h (1 Bft) 97,87 %
15.08.2016 02:58 16,3 C 94 % 1019,2 hPa 0,0 l/m 1,8 km/h (1 Bft) O-SO 111 0 min 0,000 mm 0,0 UV-I 0 W/m 15,3 C 16,3 C 4,8 km/h (1 Bft) 100,00 %
15.08.2016 03:00 16,3 C 94 % 1019,2 hPa 0,0 l/m 0,3 km/h (0 Bft) O-SO 111 0 min 0,000 mm 0,0 UV-I 0 W/m 15,3 C 16,3 C 1,6 km/h (1 Bft) 97,87 %
15.08.2016 03:02 16,3 C 94 % 1019,2 hPa 0,0 l/m 1,3 km/h (1 Bft) O-SO 111 0 min 0,000 mm 0,0 UV-I 0 W/m 15,3 C 16,3 C 3,2 km/h (1 Bft) 100,00 %
15.08.2016 03:04 16,3 C 94 % 1019,3 hPa 0,0 l/m 2,2 km/h (1 Bft) O 96 0 min 0,000 mm 0,0 UV-I 0 W/m 15,3 C 16,3 C 3,2 km/h (1 Bft) 96,15 %
15.08.2016 03:06 16,3 C 94 % 1019,2 hPa 0,0 l/m 4,0 km/h (1 Bft) O-NO 77 0 min 0,000 mm 0,0 UV-I 0 W/m 15,3 C 16,3 C 4,8 km/h (1 Bft) 100,00 %
15.08.2016 03:08 16,3 C 94 % 1019,2 hPa 0,0 l/m 4,8 km/h (1 Bft) O-NO 77 0 min 0,000 mm 0,0 UV-I 0 W/m 15,3 C 16,3 C 6,4 km/h (2 Bft) 100,00 %
15.08.2016 03:10 16,4 C 94 % 1019,2 hPa 0,0 l/m 3,8 km/h (1 Bft) O-NO 77 0 min 0,000 mm 0,0 UV-I 0 W/m 15,4 C 16,4 C 6,4 km/h (2 Bft) 100,00 %
15.08.2016 03:12 16,4 C 94 % 1019,2 hPa 0,0 l/m 1,4 km/h (1 Bft) O-NO 77 0 min 0,000 mm 0,0 UV-I 0 W/m 15,4 C 16,4 C 3,2 km/h (1 Bft) 100,00 %
15.08.2016 03:14 16,3 C 94 % 1019,2 hPa 0,0 l/m 1,8 km/h (1 Bft) O-NO 77 0 min 0,000 mm 0,0 UV-I 0 W/m 15,3 C 16,3 C 3,2 km/h (1 Bft) 100,00 %
15.08.2016 03:16 16,3 C 94 % 1019,1 hPa 0,0 l/m 3,7 km/h (1 Bft) O-NO 69 0 min 0,000 mm 0,0 UV-I 0 W/m 15,3 C 16,3 C 4,8 km/h (1 Bft) 98,00 %
15.08.2016 03:18 16,4 C 95 % 1019,2 hPa 0,0 l/m 2,5 km/h (1 Bft) O-NO 69 0 min 0,000 mm 0,0 UV-I 0 W/m 15,6 C 16,4 C 4,8 km/h (1 Bft) 100,00 %
15.08.2016 03:20 16,6 C 95 % 1019,2 hPa 0,0 l/m 0,2 km/h (0 Bft) O-NO 69 0 min 0,000 mm 0,0 UV-I 0 W/m 15,8 C 16,6 C 1,6 km/h (1 Bft) 100,00 %
15.08.2016 03:22 16,6 C 94 % 1019,2 hPa 0,0 l/m 0,3 km/h (0 Bft) O-NO 69 0 min 0,000 mm 0,0 UV-I 0 W/m 15,6 C 16,6 C 1,6 km/h (1 Bft) 95,74 %
15.08.2016 03:24 16,4 C 93 % 1019,1 hPa 0,0 l/m 0,6 km/h (0 Bft) O-NO 69 0 min 0,000 mm 0,0 UV-I 0 W/m 15,3 C 16,4 C 3,2 km/h (1 Bft) 98,00 %
15.08.2016 03:26 16,3 C 93 % 1019,2 hPa 0,0 l/m 2,7 km/h (1 Bft) SO 144 0 min 0,000 mm 0,0 UV-I 0 W/m 15,2 C 16,3 C 4,8 km/h (1 Bft) 100,00 %
15.08.2016 03:28 16,1 C 93 % 1019,2 hPa 0,0 l/m 2,6 km/h (1 Bft) SO 145 0 min 0,000 mm 0,0 UV-I 0 W/m 15,0 C 16,1 C 4,8 km/h (1 Bft) 98,00 %
15.08.2016 03:30 16,1 C 93 % 1019,2 hPa 0,0 l/m 1,7 km/h (1 Bft) SO 145 0 min 0,000 mm 0,0 UV-I 0 W/m 15,0 C 16,1 C 3,2 km/h (1 Bft) 100,00 %
15.08.2016 03:32 16,1 C 94 % 1019,2 hPa 0,0 l/m 1,5 km/h (1 Bft) SO 145 0 min 0,000 mm 0,0 UV-I 0 W/m 15,1 C 16,1 C 3,2 km/h (1 Bft) 100,00 %
15.08.2016 03:34 16,1 C 95 % 1019,1 hPa 0,0 l/m 1,1 km/h (1 Bft) SO 145 0 min 0,000 mm 0,0 UV-I 0 W/m 15,3 C 16,1 C 1,6 km/h (1 Bft) 100,00 %
15.08.2016 03:36 16,1 C 95 % 1019,1 hPa 0,0 l/m 0,0 km/h (0 Bft) SO 145 0 min 0,000 mm 0,0 UV-I 0 W/m 15,3 C 16,1 C 0,0 km/h (0 Bft) 96,00 %
15.08.2016 03:38 16,2 C 95 % 1019,1 hPa 0,0 l/m 1,8 km/h (1 Bft) SO 144 0 min 0,000 mm 0,0 UV-I 0 W/m 15,4 C 16,2 C 3,2 km/h (1 Bft) 100,00 %
15.08.2016 03:40 16,2 C 95 % 1019,1 hPa 0,0 l/m 3,7 km/h (1 Bft) O 98 0 min 0,000 mm 0,0 UV-I 0 W/m 15,4 C 16,2 C 4,8 km/h (1 Bft) 100,00 %
15.08.2016 03:42 16,3 C 95 % 1019,1 hPa 0,0 l/m 2,1 km/h (1 Bft) O 98 0 min 0,000 mm 0,0 UV-I 0 W/m 15,5 C 16,3 C 3,2 km/h (1 Bft) 100,00 %
15.08.2016 03:44 16,3 C 95 % 1019,0 hPa 0,0 l/m 2,2 km/h (1 Bft) O 98 0 min 0,000 mm 0,0 UV-I 0 W/m 15,5 C 16,3 C 3,2 km/h (1 Bft) 97,87 %
15.08.2016 03:46 16,3 C 94 % 1019,1 hPa 0,0 l/m 1,7 km/h (1 Bft) O 98 0 min 0,000 mm 0,0 UV-I 0 W/m 15,3 C 16,3 C 3,2 km/h (1 Bft) 97,37 %
15.08.2016 03:48 16,2 C 94 % 1019,1 hPa 0,0 l/m 0,4 km/h (0 Bft) O 98 0 min 0,000 mm 0,0 UV-I 0 W/m 15,2 C 16,2 C 1,6 km/h (1 Bft) 100,00 %
15.08.2016 03:50 16,3 C 94 % 1019,0 hPa 0,0 l/m 0,0 km/h (0 Bft) O 98 0 min 0,000 mm 0,0 UV-I 0 W/m 15,3 C 16,3 C 1,6 km/h (1 Bft) 97,87 %
15.08.2016 03:52 16,2 C 94 % 1019,0 hPa 0,0 l/m 0,0 km/h (0 Bft) O 98 0 min 0,000 mm 0,0 UV-I 0 W/m 15,2 C 16,2 C 0,0 km/h (0 Bft) 100,00 %
15.08.2016 03:54 16,2 C 94 % 1019,0 hPa 0,0 l/m 1,3 km/h (1 Bft) O 98 0 min 0,000 mm 0,0 UV-I 0 W/m 15,2 C 16,2 C 3,2 km/h (1 Bft) 100,00 %
15.08.2016 03:56 16,1 C 94 % 1019,1 hPa 0,0 l/m 2,8 km/h (1 Bft) O 98 0 min 0,000 mm 0,0 UV-I 0 W/m 15,1 C 16,1 C 4,8 km/h (1 Bft) 97,37 %
15.08.2016 03:58 16,1 C 94 % 1019,1 hPa 0,0 l/m 1,9 km/h (1 Bft) O 98 0 min 0,000 mm 0,0 UV-I 0 W/m 15,1 C 16,1 C 4,8 km/h (1 Bft) 96,00 %
15.08.2016 04:00 16,1 C 94 % 1019,1 hPa 0,0 l/m 0,5 km/h (0 Bft) O 98 0 min 0,000 mm 0,0 UV-I 0 W/m 15,1 C 16,1 C 1,6 km/h (1 Bft) 97,87 %
15.08.2016 04:02 16,1 C 94 % 1019,2 hPa 0,0 l/m 0,0 km/h (0 Bft) O 98 0 min 0,000 mm 0,0 UV-I 0 W/m 15,1 C 16,1 C 1,6 km/h (1 Bft) 92,86 %
15.08.2016 04:04 16,1 C 94 % 1019,1 hPa 0,0 l/m 0,0 km/h (0 Bft) O 98 0 min 0,000 mm 0,0 UV-I 0 W/m 15,1 C 16,1 C 1,6 km/h (1 Bft) 97,44 %
15.08.2016 04:06 15,9 C 94 % 1019,2 hPa 0,0 l/m 0,0 km/h (0 Bft) O 98 0 min 0,000 mm 0,0 UV-I 0 W/m 14,9 C 15,9 C 0,0 km/h (0 Bft) 98,11 %
15.08.2016 04:08 15,8 C 94 % 1019,2 hPa 0,0 l/m 0,0 km/h (0 Bft) O 98 0 min 0,000 mm 0,0 UV-I 0 W/m 14,8 C 15,8 C 0,0 km/h (0 Bft) 97,87 %
15.08.2016 04:10 15,8 C 94 % 1019,1 hPa 0,0 l/m 0,0 km/h (0 Bft) O 98 0 min 0,000 mm 0,0 UV-I 0 W/m 14,8 C 15,8 C 0,0 km/h (0 Bft) 97,87 %
15.08.2016 04:12 15,8 C 94 % 1019,1 hPa 0,0 l/m 0,0 km/h (0 Bft) O 98 0 min 0,000 mm 0,0 UV-I 0 W/m 14,8 C 15,8 C 0,0 km/h (0 Bft) 98,00 %
15.08.2016 04:14 15,8 C 95 % 1019,1 hPa 0,0 l/m 0,0 km/h (0 Bft) O 98 0 min 0,000 mm 0,0 UV-I 0 W/m 15,0 C 15,8 C 0,0 km/h (0 Bft) 96,00 %
15.08.2016 04:16 15,8 C 95 % 1019,1 hPa 0,0 l/m 0,5 km/h (0 Bft) O 98 0 min 0,000 mm 0,0 UV-I 0 W/m 15,0 C 15,8 C 1,6 km/h (1 Bft) 97,87 %
15.08.2016 04:18 15,8 C 95 % 1019,1 hPa 0,0 l/m 0,5 km/h (0 Bft) O 98 0 min 0,000 mm 0,0 UV-I 0 W/m 15,0 C 15,8 C 1,6 km/h (1 Bft) 97,37 %
15.08.2016 04:20 15,9 C 95 % 1019,1 hPa 0,0 l/m 0,0 km/h (0 Bft) O 98 0 min 0,000 mm 0,0 UV-I 0 W/m 15,1 C 15,9 C 0,0 km/h (0 Bft) 96,00 %
15.08.2016 04:22 15,9 C 95 % 1019,1 hPa 0,0 l/m 0,1 km/h (0 Bft) O 98 0 min 0,000 mm 0,0 UV-I 0 W/m 15,1 C 15,9 C 1,6 km/h (1 Bft) 97,87 %
15.08.2016 04:24 15,9 C 95 % 1019,0 hPa 0,0 l/m 0,8 km/h (0 Bft) O 98 0 min 0,000 mm 0,0 UV-I 0 W/m 15,1 C 15,9 C 1,6 km/h (1 Bft) 97,37 %
15.08.2016 04:26 16,0 C 95 % 1019,1 hPa 0,0 l/m 1,0 km/h (0 Bft) O 98 0 min 0,000 mm 0,0 UV-I 0 W/m 15,2 C 16,0 C 1,6 km/h (1 Bft) 98,21 %
15.08.2016 04:28 16,1 C 95 % 1019,0 hPa 0,0 l/m 0,8 km/h (0 Bft) O 98 0 min 0,000 mm 0,0 UV-I 0 W/m 15,3 C 16,1 C 1,6 km/h (1 Bft) 98,00 %
15.08.2016 04:30 16,1 C 95 % 1019,0 hPa 0,0 l/m 0,7 km/h (0 Bft) O 98 0 min 0,000 mm 0,0 UV-I 0 W/m 15,3 C 16,1 C 1,6 km/h (1 Bft) 100,00 %
15.08.2016 04:32 16,2 C 94 % 1019,0 hPa 0,0 l/m 0,9 km/h (0 Bft) O 98 0 min 0,000 mm 0,0 UV-I 0 W/m 15,2 C 16,2 C 3,2 km/h (1 Bft) 100,00 %
15.08.2016 04:34 16,3 C 94 % 1019,0 hPa 0,0 l/m 1,7 km/h (1 Bft) O 98 0 min 0,000 mm 0,0 UV-I 0 W/m 15,3 C 16,3 C 4,8 km/h (1 Bft) 96,00 %
15.08.2016 04:36 16,3 C 94 % 1019,0 hPa 0,0 l/m 1,1 km/h (1 Bft) O 98 0 min 0,000 mm 0,0 UV-I 0 W/m 15,3 C 16,3 C 3,2 km/h (1 Bft) 100,00 %
15.08.2016 04:38 16,3 C 94 % 1019,1 hPa 0,0 l/m 1,2 km/h (1 Bft) O 98 0 min 0,000 mm 0,0 UV-I 0 W/m 15,3 C 16,3 C 3,2 km/h (1 Bft) 100,00 %
15.08.2016 04:40 16,3 C 94 % 1019,2 hPa 0,0 l/m 1,7 km/h (1 Bft) O 98 0 min 0,000 mm 0,0 UV-I 0 W/m 15,3 C 16,3 C 3,2 km/h (1 Bft) 100,00 %
15.08.2016 04:42 16,2 C 94 % 1019,2 hPa 0,0 l/m 2,1 km/h (1 Bft) O 98 0 min 0,000 mm 0,0 UV-I 0 W/m 15,2 C 16,2 C 3,2 km/h (1 Bft) 100,00 %
15.08.2016 04:44 16,1 C 93 % 1019,2 hPa 0,0 l/m 2,6 km/h (1 Bft) O 99 0 min 0,000 mm 0,0 UV-I 0 W/m 15,0 C 16,1 C 3,2 km/h (1 Bft) 100,00 %
15.08.2016 04:46 16,0 C 93 % 1019,2 hPa 0,0 l/m 1,2 km/h (1 Bft) O 99 0 min 0,000 mm 0,0 UV-I 0 W/m 14,9 C 16,0 C 3,2 km/h (1 Bft) 100,00 %
15.08.2016 04:48 15,9 C 94 % 1019,1 hPa 0,0 l/m 0,9 km/h (0 Bft) O 99 0 min 0,000 mm 0,0 UV-I 0 W/m 14,9 C 15,9 C 3,2 km/h (1 Bft) 97,96 %
15.08.2016 04:50 15,8 C 94 % 1019,0 hPa 0,0 l/m 3,4 km/h (1 Bft) O 99 0 min 0,000 mm 0,0 UV-I 0 W/m 14,8 C 15,8 C 4,8 km/h (1 Bft) 95,74 %
15.08.2016 04:52 15,7 C 94 % 1019,0 hPa 0,0 l/m 3,4 km/h (1 Bft) O 98 0 min 0,000 mm 0,0 UV-I 0 W/m 14,7 C 15,7 C 4,8 km/h (1 Bft) 97,37 %
15.08.2016 04:54 15,7 C 94 % 1019,0 hPa 0,0 l/m 3,3 km/h (1 Bft) O 96 0 min 0,000 mm 0,0 UV-I 0 W/m 14,7 C 15,7 C 4,8 km/h (1 Bft) 98,11 %
15.08.2016 04:56 15,8 C 94 % 1019,1 hPa 0,0 l/m 1,1 km/h (1 Bft) O 96 0 min 0,000 mm 0,0 UV-I 0 W/m 14,8 C 15,8 C 3,2 km/h (1 Bft) 100,00 %
15.08.2016 04:58 15,8 C 95 % 1019,1 hPa 0,0 l/m 1,2 km/h (1 Bft) O 96 0 min 0,000 mm 0,0 UV-I 0 W/m 15,0 C 15,8 C 3,2 km/h (1 Bft) 97,87 %
15.08.2016 05:00 15,8 C 94 % 1019,1 hPa 0,0 l/m 0,5 km/h (0 Bft) O 96 0 min 0,000 mm 0,0 UV-I 0 W/m 14,8 C 15,8 C 1,6 km/h (1 Bft) 100,00 %
15.08.2016 05:02 15,9 C 94 % 1019,1 hPa 0,0 l/m 0,0 km/h (0 Bft) O 96 0 min 0,000 mm 0,0 UV-I 0 W/m 14,9 C 15,9 C 1,6 km/h (1 Bft) 100,00 %
15.08.2016 05:04 15,9 C 94 % 1019,1 hPa 0,0 l/m 0,0 km/h (0 Bft) O 96 0 min 0,000 mm 0,0 UV-I 0 W/m 14,9 C 15,9 C 0,0 km/h (0 Bft) 95,74 %
15.08.2016 05:06 15,8 C 94 % 1019,1 hPa 0,0 l/m 0,9 km/h (0 Bft) O 96 0 min 0,000 mm 0,0 UV-I 0 W/m 14,8 C 15,8 C 1,6 km/h (1 Bft) 100,00 %
15.08.2016 05:08 15,7 C 94 % 1019,1 hPa 0,0 l/m 0,0 km/h (0 Bft) O 96 0 min 0,000 mm 0,0 UV-I 0 W/m 14,7 C 15,7 C 1,6 km/h (1 Bft) 100,00 %
15.08.2016 05:10 15,7 C 94 % 1019,0 hPa 0,0 l/m 3,0 km/h (1 Bft) O 95 0 min 0,000 mm 0,0 UV-I 0 W/m 14,7 C 15,7 C 4,8 km/h (1 Bft) 98,11 %
15.08.2016 05:12 15,6 C 94 % 1019,0 hPa 0,0 l/m 3,0 km/h (1 Bft) O 94 0 min 0,000 mm 0,0 UV-I 0 W/m 14,6 C 15,6 C 4,8 km/h (1 Bft) 100,00 %
15.08.2016 05:14 15,7 C 95 % 1019,0 hPa 0,0 l/m 3,1 km/h (1 Bft) O 88 0 min 0,000 mm 0,0 UV-I 0 W/m 14,9 C 15,7 C 4,8 km/h (1 Bft) 100,00 %
15.08.2016 05:16 15,7 C 94 % 1019,1 hPa 0,0 l/m 1,8 km/h (1 Bft) O 88 0 min 0,000 mm 0,0 UV-I 0 W/m 14,7 C 15,7 C 4,8 km/h (1 Bft) 100,00 %
15.08.2016 05:18 15,7 C 94 % 1019,1 hPa 0,0 l/m 0,1 km/h (0 Bft) O 88 0 min 0,000 mm 0,0 UV-I 0 W/m 14,7 C 15,7 C 1,6 km/h (1 Bft) 100,00 %
15.08.2016 05:20 15,7 C 94 % 1019,2 hPa 0,0 l/m 0,1 km/h (0 Bft) O 88 0 min 0,000 mm 0,0 UV-I 0 W/m 14,7 C 15,7 C 1,6 km/h (1 Bft) 100,00 %
15.08.2016 05:22 15,7 C 94 % 1019,1 hPa 0,0 l/m 0,0 km/h (0 Bft) O 88 0 min 0,000 mm 0,0 UV-I 0 W/m 14,7 C 15,7 C 0,0 km/h (0 Bft) 100,00 %
15.08.2016 05:24 15,7 C 94 % 1019,1 hPa 0,0 l/m 0,0 km/h (0 Bft) O 88 0 min 0,000 mm 0,0 UV-I 0 W/m 14,7 C 15,7 C 0,0 km/h (0 Bft) 100,00 %
15.08.2016 05:26 15,6 C 94 % 1019,2 hPa 0,0 l/m 0,0 km/h (0 Bft) O 88 0 min 0,000 mm 0,0 UV-I 0 W/m 14,6 C 15,6 C 0,0 km/h (0 Bft) 96,00 %
15.08.2016 05:28 15,5 C 94 % 1019,2 hPa 0,0 l/m 0,0 km/h (0 Bft) O 88 0 min 0,000 mm 0,0 UV-I 0 W/m 14,5 C 15,5 C 0,0 km/h (0 Bft) 100,00 %
15.08.2016 05:30 15,5 C 94 % 1019,1 hPa 0,0 l/m 0,0 km/h (0 Bft) O 88 0 min 0,000 mm 0,0 UV-I 0 W/m 14,5 C 15,5 C 0,0 km/h (0 Bft) 100,00 %
15.08.2016 05:32 15,5 C 94 % 1019,1 hPa 0,0 l/m 0,0 km/h (0 Bft) O 88 0 min 0,000 mm 0,0 UV-I 0 W/m 14,5 C 15,5 C 0,0 km/h (0 Bft) 100,00 %
15.08.2016 05:34 15,6 C 95 % 1019,2 hPa 0,0 l/m 1,6 km/h (1 Bft) O 88 0 min 0,000 mm 0,0 UV-I 0 W/m 14,8 C 15,6 C 3,2 km/h (1 Bft) 100,00 %
15.08.2016 05:36 15,6 C 94 % 1019,1 hPa 0,0 l/m 2,6 km/h (1 Bft) O 88 0 min 0,000 mm 0,0 UV-I 0 W/m 14,6 C 15,6 C 4,8 km/h (1 Bft) 97,87 %
15.08.2016 05:38 15,6 C 94 % 1019,1 hPa 0,0 l/m 2,7 km/h (1 Bft) O-NO 63 0 min 0,000 mm 0,0 UV-I 0 W/m 14,6 C 15,6 C 3,2 km/h (1 Bft) 100,00 %
15.08.2016 05:40 15,6 C 94 % 1019,1 hPa 0,0 l/m 1,9 km/h (1 Bft) O-NO 62 0 min 0,000 mm 0,0 UV-I 0 W/m 14,6 C 15,6 C 3,2 km/h (1 Bft) 100,00 %
15.08.2016 05:42 15,6 C 94 % 1019,1 hPa 0,0 l/m 1,7 km/h (1 Bft) O-NO 57 0 min 0,000 mm 0,0 UV-I 0 W/m 14,6 C 15,6 C 3,2 km/h (1 Bft) 100,00 %
15.08.2016 05:44 15,6 C 95 % 1019,2 hPa 0,0 l/m 0,6 km/h (0 Bft) O-NO 57 0 min 0,000 mm 0,0 UV-I 0 W/m 14,8 C 15,6 C 1,6 km/h (1 Bft) 100,00 %
15.08.2016 05:46 15,6 C 94 % 1019,2 hPa 0,0 l/m 0,7 km/h (0 Bft) O-NO 57 0 min 0,000 mm 0,0 UV-I 0 W/m 14,6 C 15,6 C 3,2 km/h (1 Bft) 100,00 %
15.08.2016 05:48 15,6 C 94 % 1019,3 hPa 0,0 l/m 2,3 km/h (1 Bft) O-NO 57 0 min 0,000 mm 0,0 UV-I 0 W/m 14,6 C 15,6 C 3,2 km/h (1 Bft) 100,00 %
15.08.2016 05:50 15,5 C 94 % 1019,2 hPa 0,0 l/m 1,9 km/h (1 Bft) O-NO 57 0 min 0,000 mm 0,0 UV-I 0 W/m 14,5 C 15,5 C 3,2 km/h (1 Bft) 100,00 %
15.08.2016 05:52 15,4 C 94 % 1019,2 hPa 0,0 l/m 0,4 km/h (0 Bft) O-NO 57 0 min 0,000 mm 0,0 UV-I 0 W/m 14,4 C 15,4 C 1,6 km/h (1 Bft) 100,00 %
15.08.2016 05:54 15,4 C 94 % 1019,2 hPa 0,0 l/m 0,2 km/h (0 Bft) O-NO 57 0 min 0,000 mm 0,0 UV-I 0 W/m 14,4 C 15,4 C 1,6 km/h (1 Bft) 98,11 %
15.08.2016 05:56 15,4 C 95 % 1019,2 hPa 0,0 l/m 0,7 km/h (0 Bft) O-NO 65 0 min 0,000 mm 0,0 UV-I 4 W/m 14,6 C 15,4 C 1,6 km/h (1 Bft) 97,87 %
15.08.2016 05:58 15,3 C 95 % 1019,4 hPa 0,0 l/m 0,1 km/h (0 Bft) O-NO 65 0 min 0,000 mm 0,0 UV-I 6 W/m 14,5 C 15,3 C 1,6 km/h (1 Bft) 100,00 %
15.08.2016 06:00 15,3 C 95 % 1019,3 hPa 0,0 l/m 0,0 km/h (0 Bft) O-NO 65 0 min 0,000 mm 0,0 UV-I 8 W/m 14,5 C 15,3 C 0,0 km/h (0 Bft) 95,74 %
15.08.2016 06:02 15,3 C 95 % 1019,3 hPa 0,0 l/m 0,0 km/h (0 Bft) O-NO 65 0 min 0,000 mm 0,0 UV-I 9 W/m 14,5 C 15,3 C 1,6 km/h (1 Bft) 96,00 %
15.08.2016 06:04 15,3 C 95 % 1019,2 hPa 0,0 l/m 0,6 km/h (0 Bft) O-NO 65 0 min 0,000 mm 0,0 UV-I 9 W/m 14,5 C 15,3 C 1,6 km/h (1 Bft) 97,87 %
15.08.2016 06:06 15,3 C 95 % 1019,2 hPa 0,0 l/m 2,6 km/h (1 Bft) O-NO 65 0 min 0,000 mm 0,0 UV-I 10 W/m 14,5 C 15,3 C 3,2 km/h (1 Bft) 95,83 %
15.08.2016 06:08 15,3 C 95 % 1019,2 hPa 0,0 l/m 2,6 km/h (1 Bft) O-NO 65 0 min 0,000 mm 0,0 UV-I 12 W/m 14,5 C 15,3 C 3,2 km/h (1 Bft) 95,12 %
15.08.2016 06:10 15,4 C 95 % 1019,2 hPa 0,0 l/m 0,9 km/h (0 Bft) O-NO 65 2 min 0,000 mm 0,0 UV-I 14 W/m 14,6 C 15,4 C 1,6 km/h (1 Bft) 97,87 %
15.08.2016 06:12 15,5 C 95 % 1019,3 hPa 0,0 l/m 0,0 km/h (0 Bft) O-NO 65 2 min 0,000 mm 0,0 UV-I 17 W/m 14,7 C 15,5 C 1,6 km/h (1 Bft) 98,00 %
15.08.2016 06:14 15,5 C 94 % 1019,3 hPa 0,0 l/m 0,0 km/h (0 Bft) O-NO 65 2 min 0,000 mm 0,0 UV-I 19 W/m 14,5 C 15,5 C 0,0 km/h (0 Bft) 97,87 %
15.08.2016 06:16 15,4 C 94 % 1019,3 hPa 0,0 l/m 2,3 km/h (1 Bft) O-NO 65 2 min 0,000 mm 0,0 UV-I 21 W/m 14,4 C 15,4 C 4,8 km/h (1 Bft) 96,00 %
15.08.2016 06:18 15,5 C 94 % 1019,2 hPa 0,0 l/m 3,0 km/h (1 Bft) O-NO 65 2 min 0,000 mm 0,0 UV-I 25 W/m 14,5 C 15,5 C 4,8 km/h (1 Bft) 97,37 %
15.08.2016 06:20 15,5 C 94 % 1019,3 hPa 0,0 l/m 2,7 km/h (1 Bft) O-NO 65 2 min 0,000 mm 0,0 UV-I 28 W/m 14,5 C 15,5 C 3,2 km/h (1 Bft) 98,00 %
15.08.2016 06:22 15,6 C 94 % 1019,3 hPa 0,0 l/m 0,9 km/h (0 Bft) O-NO 65 2 min 0,000 mm 0,0 UV-I 31 W/m 14,6 C 15,6 C 3,2 km/h (1 Bft) 96,00 %
15.08.2016 06:24 15,7 C 94 % 1019,3 hPa 0,0 l/m 0,2 km/h (0 Bft) O-NO 65 2 min 0,000 mm 0,0 UV-I 35 W/m 14,7 C 15,7 C 1,6 km/h (1 Bft) 97,87 %
15.08.2016 06:26 15,7 C 94 % 1019,4 hPa 0,0 l/m 0,1 km/h (0 Bft) O-NO 65 2 min 0,000 mm 0,0 UV-I 39 W/m 14,7 C 15,7 C 1,6 km/h (1 Bft) 98,00 %
15.08.2016 06:28 15,8 C 94 % 1019,4 hPa 0,0 l/m 0,0 km/h (0 Bft) O-NO 65 2 min 0,000 mm 0,0 UV-I 44 W/m 14,8 C 15,8 C 0,0 km/h (0 Bft) 97,37 %
15.08.2016 06:30 15,7 C 93 % 1019,4 hPa 0,0 l/m 0,9 km/h (0 Bft) O-NO 65 2 min 0,000 mm 0,0 UV-I 51 W/m 14,6 C 15,7 C 3,2 km/h (1 Bft) 98,11 %
15.08.2016 06:32 15,7 C 93 % 1019,5 hPa 0,0 l/m 1,0 km/h (0 Bft) O-NO 65 2 min 0,000 mm 0,0 UV-I 59 W/m 14,6 C 15,7 C 3,2 km/h (1 Bft) 98,00 %
15.08.2016 06:34 15,6 C 93 % 1019,5 hPa 0,0 l/m 1,6 km/h (1 Bft) O-NO 65 2 min 0,000 mm 0,0 UV-I 63 W/m 14,5 C 15,6 C 3,2 km/h (1 Bft) 100,00 %
15.08.2016 06:36 15,6 C 94 % 1019,5 hPa 0,0 l/m 1,6 km/h (1 Bft) O-NO 66 2 min 0,000 mm 0,0 UV-I 63 W/m 14,6 C 15,6 C 3,2 km/h (1 Bft) 100,00 %
15.08.2016 06:38 15,6 C 94 % 1019,5 hPa 0,0 l/m 1,3 km/h (1 Bft) O-NO 66 2 min 0,000 mm 0,0 UV-I 64 W/m 14,6 C 15,6 C 3,2 km/h (1 Bft) 100,00 %
15.08.2016 06:40 15,6 C 94 % 1019,4 hPa 0,0 l/m 0,0 km/h (0 Bft) O-NO 66 2 min 0,000 mm 0,0 UV-I 64 W/m 14,6 C 15,6 C 1,6 km/h (1 Bft) 95,24 %
15.08.2016 06:42 15,7 C 94 % 1019,4 hPa 0,0 l/m 0,0 km/h (0 Bft) O-NO 66 2 min 0,000 mm 0,0 UV-I 64 W/m 14,7 C 15,7 C 0,0 km/h (0 Bft) 100,00 %
15.08.2016 06:44 15,8 C 94 % 1019,5 hPa 0,0 l/m 0,3 km/h (0 Bft) O-NO 66 2 min 0,000 mm 0,0 UV-I 68 W/m 14,8 C 15,8 C 1,6 km/h (1 Bft) 97,87 %
15.08.2016 06:46 15,8 C 93 % 1019,5 hPa 0,0 l/m 2,1 km/h (1 Bft) SO 136 2 min 0,000 mm 0,0 UV-I 68 W/m 14,7 C 15,8 C 3,2 km/h (1 Bft) 100,00 %
15.08.2016 06:48 16,0 C 93 % 1019,5 hPa 0,0 l/m 0,8 km/h (0 Bft) SO 136 0 min 0,000 mm 0,0 UV-I 63 W/m 14,9 C 16,0 C 3,2 km/h (1 Bft) 100,00 %
15.08.2016 06:50 16,1 C 93 % 1019,5 hPa 0,0 l/m 0,9 km/h (0 Bft) SO 136 0 min 0,000 mm 0,0 UV-I 58 W/m 15,0 C 16,1 C 3,2 km/h (1 Bft) 97,87 %
15.08.2016 06:52 16,2 C 93 % 1019,5 hPa 0,0 l/m 3,1 km/h (1 Bft) O-SO 118 0 min 0,000 mm 0,0 UV-I 57 W/m 15,1 C 16,2 C 4,8 km/h (1 Bft) 100,00 %
15.08.2016 06:54 16,3 C 92 % 1019,5 hPa 0,0 l/m 3,3 km/h (1 Bft) O-SO 115 0 min 0,000 mm 0,0 UV-I 53 W/m 15,0 C 16,3 C 4,8 km/h (1 Bft) 100,00 %
15.08.2016 06:56 16,4 C 91 % 1019,5 hPa 0,0 l/m 2,6 km/h (1 Bft) O-SO 111 0 min 0,000 mm 0,0 UV-I 51 W/m 14,9 C 16,4 C 4,8 km/h (1 Bft) 100,00 %
15.08.2016 06:58 16,4 C 91 % 1019,5 hPa 0,0 l/m 1,1 km/h (1 Bft) O-SO 111 0 min 0,000 mm 0,0 UV-I 49 W/m 14,9 C 16,4 C 3,2 km/h (1 Bft) 100,00 %
15.08.2016 07:00 16,5 C 90 % 1019,6 hPa 0,0 l/m 3,2 km/h (1 Bft) O-NO 67 0 min 0,025 mm 0,0 UV-I 46 W/m 14,9 C 16,5 C 4,8 km/h (1 Bft) 100,00 %
15.08.2016 07:02 16,6 C 90 % 1019,6 hPa 0,0 l/m 4,2 km/h (1 Bft) O-NO 71 0 min 0,000 mm 0,0 UV-I 47 W/m 15,0 C 16,6 C 6,4 km/h (2 Bft) 95,38 %
15.08.2016 07:04 16,7 C 90 % 1019,6 hPa 0,0 l/m 3,1 km/h (1 Bft) O 89 0 min 0,000 mm 0,0 UV-I 48 W/m 15,0 C 16,7 C 4,8 km/h (1 Bft) 95,45 %
15.08.2016 07:06 16,7 C 89 % 1019,5 hPa 0,0 l/m 3,9 km/h (1 Bft) O 92 0 min 0,000 mm 0,0 UV-I 58 W/m 14,9 C 16,7 C 4,8 km/h (1 Bft) 100,00 %
15.08.2016 07:08 16,7 C 89 % 1019,4 hPa 0,0 l/m 6,3 km/h (2 Bft) O-NO 58 0 min 0,000 mm 0,0 UV-I 72 W/m 14,9 C 16,7 C 9,7 km/h (2 Bft) 100,00 %
15.08.2016 07:10 16,7 C 89 % 1019,5 hPa 0,0 l/m 3,7 km/h (1 Bft) O-NO 65 0 min 0,000 mm 0,0 UV-I 76 W/m 14,9 C 16,7 C 8,0 km/h (2 Bft) 100,00 %
15.08.2016 07:12 16,7 C 89 % 1019,6 hPa 0,0 l/m 3,5 km/h (1 Bft) O-NO 76 2 min 0,000 mm 0,0 UV-I 104 W/m 14,9 C 16,7 C 6,4 km/h (2 Bft) 100,00 %
15.08.2016 07:14 16,8 C 89 % 1019,6 hPa 0,0 l/m 3,1 km/h (1 Bft) O-NO 69 2 min 0,000 mm 0,0 UV-I 117 W/m 15,0 C 16,8 C 6,4 km/h (2 Bft) 100,00 %
15.08.2016 07:16 16,8 C 89 % 1019,6 hPa 0,0 l/m 3,8 km/h (1 Bft) SO 127 2 min 0,000 mm 0,0 UV-I 124 W/m 15,0 C 16,8 C 6,4 km/h (2 Bft) 100,00 %
15.08.2016 07:18 16,9 C 89 % 1019,6 hPa 0,0 l/m 2,3 km/h (1 Bft) O-SO 120 2 min 0,000 mm 0,0 UV-I 142 W/m 15,1 C 16,9 C 4,8 km/h (1 Bft) 98,00 %
15.08.2016 07:20 16,9 C 89 % 1019,5 hPa 0,0 l/m 3,7 km/h (1 Bft) O-SO 117 2 min 0,000 mm 0,0 UV-I 150 W/m 15,1 C 16,9 C 4,8 km/h (1 Bft) 100,00 %
15.08.2016 07:22 17,1 C 88 % 1019,5 hPa 0,0 l/m 4,8 km/h (1 Bft) O-NO 67 2 min 0,000 mm 0,0 UV-I 155 W/m 15,1 C 17,1 C 12,9 km/h (3 Bft) 97,73 %
15.08.2016 07:24 17,1 C 87 % 1019,5 hPa 0,0 l/m 5,9 km/h (2 Bft) NO 55 2 min 0,000 mm 0,0 UV-I 156 W/m 14,9 C 17,1 C 8,0 km/h (2 Bft) 100,00 %
15.08.2016 07:26 17,2 C 87 % 1019,5 hPa 0,0 l/m 7,4 km/h (2 Bft) O-NO 59 2 min 0,000 mm 0,0 UV-I 143 W/m 15,0 C 16,7 C 11,3 km/h (2 Bft) 100,00 %
15.08.2016 07:28 17,2 C 86 % 1019,4 hPa 0,0 l/m 8,0 km/h (2 Bft) O-NO 67 0 min 0,000 mm 0,0 UV-I 116 W/m 14,8 C 16,4 C 11,3 km/h (2 Bft) 97,87 %
15.08.2016 07:30 17,2 C 87 % 1019,4 hPa 0,0 l/m 6,6 km/h (2 Bft) O-NO 69 0 min 0,000 mm 0,0 UV-I 84 W/m 15,0 C 17,1 C 9,7 km/h (2 Bft) 100,00 %
15.08.2016 07:32 17,2 C 87 % 1019,4 hPa 0,0 l/m 6,4 km/h (2 Bft) O-NO 65 2 min 0,000 mm 0,0 UV-I 154 W/m 15,0 C 17,2 C 8,0 km/h (2 Bft) 100,00 %
15.08.2016 07:34 17,2 C 88 % 1019,5 hPa 0,0 l/m 5,5 km/h (1 Bft) NO 46 0 min 0,000 mm 0,0 UV-I 136 W/m 15,2 C 17,2 C 8,0 km/h (2 Bft) 98,21 %
15.08.2016 07:36 17,2 C 88 % 1019,5 hPa 0,0 l/m 4,4 km/h (1 Bft) NO 49 2 min 0,000 mm 0,0 UV-I 143 W/m 15,2 C 17,2 C 6,4 km/h (2 Bft) 97,56 %
15.08.2016 07:38 17,3 C 89 % 1019,5 hPa 0,0 l/m 3,2 km/h (1 Bft) N-NO 32 2 min 0,000 mm 0,0 UV-I 192 W/m 15,5 C 17,3 C 6,4 km/h (2 Bft) 100,00 %
15.08.2016 07:40 17,5 C 89 % 1019,6 hPa 0,0 l/m 3,8 km/h (1 Bft) N-NO 32 2 min 0,000 mm 0,0 UV-I 204 W/m 15,7 C 17,5 C 6,4 km/h (2 Bft) 98,00 %
15.08.2016 07:42 17,6 C 87 % 1019,6 hPa 0,0 l/m 6,3 km/h (2 Bft) NO 40 2 min 0,000 mm 0,0 UV-I 216 W/m 15,4 C 17,6 C 11,3 km/h (2 Bft) 100,00 %
15.08.2016 07:44 17,7 C 86 % 1019,6 hPa 0,0 l/m 8,1 km/h (2 Bft) NO 56 2 min 0,000 mm 0,0 UV-I 221 W/m 15,3 C 16,9 C 12,9 km/h (3 Bft) 100,00 %
15.08.2016 07:46 17,7 C 86 % 1019,5 hPa 0,0 l/m 7,2 km/h (2 Bft) N-NO 13 2 min 0,000 mm 0,0 UV-I 206 W/m 15,3 C 17,3 C 11,3 km/h (2 Bft) 100,00 %
15.08.2016 07:48 17,8 C 86 % 1019,6 hPa 0,0 l/m 7,2 km/h (2 Bft) NO 56 2 min 0,000 mm 0,0 UV-I 216 W/m 15,4 C 17,4 C 9,7 km/h (2 Bft) 100,00 %
15.08.2016 07:50 17,8 C 85 % 1019,5 hPa 0,0 l/m 6,1 km/h (2 Bft) NO 45 2 min 0,000 mm 0,0 UV-I 204 W/m 15,2 C 17,8 C 11,3 km/h (2 Bft) 100,00 %
15.08.2016 07:52 17,9 C 85 % 1019,5 hPa 0,0 l/m 8,4 km/h (2 Bft) NO 44 2 min 0,000 mm 0,0 UV-I 174 W/m 15,3 C 17,0 C 14,5 km/h (3 Bft) 100,00 %
15.08.2016 07:54 17,9 C 84 % 1019,6 hPa 0,0 l/m 6,3 km/h (2 Bft) NO 36 0 min 0,000 mm 0,1 UV-I 154 W/m 15,2 C 17,9 C 14,5 km/h (3 Bft) 98,00 %
15.08.2016 07:56 18,0 C 85 % 1019,6 hPa 0,0 l/m 7,9 km/h (2 Bft) NO 36 2 min 0,000 mm 0,5 UV-I 201 W/m 15,4 C 17,3 C 14,5 km/h (3 Bft) 100,00 %
15.08.2016 07:58 18,0 C 84 % 1019,6 hPa 0,0 l/m 7,4 km/h (2 Bft) O-NO 69 2 min 0,000 mm 0,5 UV-I 189 W/m 15,3 C 17,5 C 11,3 km/h (2 Bft) 100,00 %
15.08.2016 08:00 18,0 C 83 % 1019,6 hPa 0,0 l/m 8,4 km/h (2 Bft) NO 55 0 min 0,102 mm 0,5 UV-I 153 W/m 15,1 C 17,1 C 14,5 km/h (3 Bft) 96,23 %
15.08.2016 08:02 18,0 C 83 % 1019,5 hPa 0,0 l/m 11,1 km/h (2 Bft) O-NO 61 2 min 0,000 mm 0,5 UV-I 180 W/m 15,1 C 16,0 C 16,1 km/h (3 Bft) 100,00 %
15.08.2016 08:04 18,0 C 83 % 1019,6 hPa 0,0 l/m 9,9 km/h (2 Bft) O-NO 69 2 min 0,000 mm 0,6 UV-I 191 W/m 15,1 C 16,5 C 16,1 km/h (3 Bft) 96,43 %
15.08.2016 08:06 18,0 C 83 % 1019,5 hPa 0,0 l/m 9,3 km/h (2 Bft) NO 36 0 min 0,000 mm 0,6 UV-I 179 W/m 15,1 C 16,7 C 14,5 km/h (3 Bft) 97,56 %
15.08.2016 08:08 18,0 C 83 % 1019,5 hPa 0,0 l/m 10,6 km/h (2 Bft) NO 42 0 min 0,000 mm 0,6 UV-I 174 W/m 15,1 C 16,2 C 20,9 km/h (4 Bft) 98,00 %
15.08.2016 08:10 18,1 C 83 % 1019,5 hPa 0,0 l/m 9,7 km/h (2 Bft) NO 50 0 min 0,000 mm 0,6 UV-I 187 W/m 15,2 C 16,7 C 16,1 km/h (3 Bft) 98,11 %
15.08.2016 08:12 18,1 C 82 % 1019,5 hPa 0,0 l/m 10,9 km/h (2 Bft) O-NO 59 2 min 0,000 mm 0,6 UV-I 246 W/m 15,0 C 16,2 C 16,1 km/h (3 Bft) 95,83 %
15.08.2016 08:14 18,1 C 82 % 1019,5 hPa 0,0 l/m 10,7 km/h (2 Bft) O-NO 77 2 min 0,000 mm 0,7 UV-I 267 W/m 15,0 C 16,3 C 16,1 km/h (3 Bft) 98,59 %
15.08.2016 08:16 18,2 C 82 % 1019,4 hPa 0,0 l/m 9,9 km/h (2 Bft) O-NO 63 2 min 0,000 mm 0,7 UV-I 277 W/m 15,1 C 16,7 C 17,7 km/h (3 Bft) 95,45 %
15.08.2016 08:18 18,2 C 82 % 1019,4 hPa 0,0 l/m 11,2 km/h (2 Bft) O-NO 57 2 min 0,000 mm 0,7 UV-I 284 W/m 15,1 C 16,2 C 16,1 km/h (3 Bft) 98,00 %
15.08.2016 08:20 18,3 C 82 % 1019,4 hPa 0,0 l/m 11,5 km/h (2 Bft) O-NO 59 2 min 0,000 mm 0,8 UV-I 290 W/m 15,2 C 16,2 C 17,7 km/h (3 Bft) 97,37 %
15.08.2016 08:22 18,3 C 81 % 1019,4 hPa 0,0 l/m 12,6 km/h (3 Bft) NO 42 2 min 0,000 mm 0,8 UV-I 297 W/m 15,0 C 15,9 C 17,7 km/h (3 Bft) 98,21 %
15.08.2016 08:24 18,4 C 81 % 1019,4 hPa 0,0 l/m 11,8 km/h (2 Bft) O-NO 69 2 min 0,000 mm 0,8 UV-I 303 W/m 15,1 C 16,3 C 17,7 km/h (3 Bft) 97,14 %
15.08.2016 08:26 18,4 C 81 % 1019,4 hPa 0,0 l/m 10,6 km/h (2 Bft) NO 42 2 min 0,000 mm 0,9 UV-I 305 W/m 15,1 C 16,7 C 19,3 km/h (3 Bft) 96,23 %
15.08.2016 08:28 18,6 C 80 % 1019,5 hPa 0,0 l/m 7,1 km/h (2 Bft) NO 39 2 min 0,000 mm 0,9 UV-I 306 W/m 15,1 C 18,3 C 12,9 km/h (3 Bft) 97,73 %
15.08.2016 08:30 18,7 C 80 % 1019,5 hPa 0,0 l/m 7,4 km/h (2 Bft) N-NO 17 2 min 0,000 mm 0,9 UV-I 306 W/m 15,2 C 18,2 C 12,9 km/h (3 Bft) 100,00 %
15.08.2016 08:32 18,8 C 81 % 1019,6 hPa 0,0 l/m 11,5 km/h (2 Bft) NO 51 2 min 0,000 mm 0,9 UV-I 299 W/m 15,5 C 16,8 C 16,1 km/h (3 Bft) 98,11 %
15.08.2016 08:34 18,8 C 79 % 1019,7 hPa 0,0 l/m 5,5 km/h (1 Bft) NO 50 2 min 0,000 mm 1,0 UV-I 299 W/m 15,1 C 18,8 C 11,3 km/h (2 Bft) 100,00 %
15.08.2016 08:36 18,9 C 79 % 1019,8 hPa 0,0 l/m 7,5 km/h (2 Bft) NO 46 2 min 0,000 mm 1,0 UV-I 301 W/m 15,2 C 18,4 C 14,5 km/h (3 Bft) 97,37 %
15.08.2016 08:38 18,9 C 78 % 1019,8 hPa 0,0 l/m 7,2 km/h (2 Bft) O 83 2 min 0,000 mm 1,0 UV-I 300 W/m 15,0 C 18,5 C 12,9 km/h (3 Bft) 97,92 %
15.08.2016 08:40 19,0 C 78 % 1019,7 hPa 0,0 l/m 9,9 km/h (2 Bft) O-NO 62 2 min 0,000 mm 1,0 UV-I 282 W/m 15,1 C 17,6 C 16,1 km/h (3 Bft) 97,87 %
15.08.2016 08:42 19,0 C 77 % 1019,8 hPa 0,0 l/m 9,7 km/h (2 Bft) O-NO 67 2 min 0,000 mm 1,0 UV-I 272 W/m 14,9 C 17,6 C 14,5 km/h (3 Bft) 100,00 %
15.08.2016 08:44 19,0 C 76 % 1019,8 hPa 0,0 l/m 10,2 km/h (2 Bft) O-NO 63 2 min 0,000 mm 1,1 UV-I 274 W/m 14,7 C 17,5 C 16,1 km/h (3 Bft) 100,00 %
15.08.2016 08:46 19,1 C 77 % 1019,8 hPa 0,0 l/m 10,1 km/h (2 Bft) NO 34 2 min 0,000 mm 1,1 UV-I 282 W/m 15,0 C 17,6 C 14,5 km/h (3 Bft) 100,00 %
15.08.2016 08:48 19,1 C 77 % 1019,8 hPa 0,0 l/m 10,8 km/h (2 Bft) NO 53 2 min 0,000 mm 1,2 UV-I 275 W/m 15,0 C 17,4 C 16,1 km/h (3 Bft) 97,56 %
15.08.2016 08:50 19,2 C 78 % 1019,8 hPa 0,0 l/m 11,8 km/h (2 Bft) NO 36 2 min 0,000 mm 1,2 UV-I 269 W/m 15,3 C 17,2 C 16,1 km/h (3 Bft) 100,00 %
15.08.2016 08:52 19,3 C 78 % 1019,7 hPa 0,0 l/m 10,1 km/h (2 Bft) O-NO 69 2 min 0,000 mm 1,2 UV-I 271 W/m 15,4 C 17,8 C 14,5 km/h (3 Bft) 100,00 %
15.08.2016 08:54 19,3 C 77 % 1019,7 hPa 0,0 l/m 12,0 km/h (2 Bft) NO 51 2 min 0,000 mm 1,3 UV-I 273 W/m 15,2 C 17,2 C 17,7 km/h (3 Bft) 97,87 %
15.08.2016 08:56 19,3 C 77 % 1019,7 hPa 0,0 l/m 14,7 km/h (3 Bft) NO 34 2 min 0,000 mm 1,3 UV-I 278 W/m 15,2 C 16,5 C 20,9 km/h (4 Bft) 100,00 %
15.08.2016 08:58 19,3 C 77 % 1019,7 hPa 0,0 l/m 12,7 km/h (3 Bft) NO 51 2 min 0,000 mm 1,3 UV-I 283 W/m 15,2 C 17,0 C 17,7 km/h (3 Bft) 100,00 %
15.08.2016 09:00 19,3 C 78 % 1019,7 hPa 0,0 l/m 9,8 km/h (2 Bft) O-NO 74 2 min 0,178 mm 1,3 UV-I 276 W/m 15,4 C 17,9 C 16,1 km/h (3 Bft) 100,00 %
15.08.2016 09:02 19,4 C 77 % 1019,7 hPa 0,0 l/m 8,2 km/h (2 Bft) O-NO 65 2 min 0,000 mm 1,4 UV-I 296 W/m 15,3 C 18,6 C 14,5 km/h (3 Bft) 98,21 %
15.08.2016 09:04 19,4 C 77 % 1019,8 hPa 0,0 l/m 9,3 km/h (2 Bft) O-NO 60 2 min 0,000 mm 1,4 UV-I 336 W/m 15,3 C 18,2 C 17,7 km/h (3 Bft) 100,00 %
15.08.2016 09:06 19,5 C 77 % 1019,7 hPa 0,0 l/m 10,7 km/h (2 Bft) NO 46 2 min 0,000 mm 1,4 UV-I 363 W/m 15,4 C 17,9 C 16,1 km/h (3 Bft) 100,00 %
15.08.2016 09:08 19,7 C 77 % 1019,7 hPa 0,0 l/m 14,6 km/h (3 Bft) O 80 2 min 0,000 mm 1,5 UV-I 382 W/m 15,5 C 17,0 C 20,9 km/h (4 Bft) 98,00 %
15.08.2016 09:10 19,7 C 76 % 1019,7 hPa 0,0 l/m 14,2 km/h (3 Bft) O-NO 78 2 min 0,000 mm 1,5 UV-I 388 W/m 15,3 C 17,1 C 17,7 km/h (3 Bft) 97,87 %
15.08.2016 09:12 19,7 C 76 % 1019,7 hPa 0,0 l/m 13,7 km/h (3 Bft) O-NO 74 2 min 0,000 mm 1,6 UV-I 401 W/m 15,3 C 17,2 C 19,3 km/h (3 Bft) 100,00 %
15.08.2016 09:14 19,7 C 76 % 1019,7 hPa 0,0 l/m 14,5 km/h (3 Bft) O-NO 67 2 min 0,000 mm 1,6 UV-I 416 W/m 15,3 C 17,0 C 20,9 km/h (4 Bft) 98,21 %
15.08.2016 09:16 19,8 C 75 % 1019,7 hPa 0,0 l/m 13,1 km/h (3 Bft) NO 43 2 min 0,000 mm 1,6 UV-I 423 W/m 15,2 C 17,5 C 20,9 km/h (4 Bft) 100,00 %
15.08.2016 09:18 19,8 C 75 % 1019,7 hPa 0,0 l/m 13,1 km/h (3 Bft) O-NO 68 2 min 0,000 mm 1,7 UV-I 443 W/m 15,2 C 17,5 C 17,7 km/h (3 Bft) 96,36 %
15.08.2016 09:20 19,9 C 74 % 1019,7 hPa 0,0 l/m 16,4 km/h (3 Bft) NO 54 2 min 0,000 mm 1,7 UV-I 447 W/m 15,1 C 16,8 C 24,1 km/h (4 Bft) 100,00 %
15.08.2016 09:22 19,9 C 75 % 1019,7 hPa 0,0 l/m 14,9 km/h (3 Bft) NO 36 2 min 0,000 mm 1,7 UV-I 446 W/m 15,3 C 17,2 C 19,3 km/h (3 Bft) 97,87 %
15.08.2016 09:24 20,0 C 74 % 1019,7 hPa 0,0 l/m 13,6 km/h (3 Bft) NO 53 2 min 0,000 mm 1,8 UV-I 447 W/m 15,2 C 17,6 C 20,9 km/h (4 Bft) 100,00 %
15.08.2016 09:26 20,1 C 75 % 1019,7 hPa 0,0 l/m 12,1 km/h (2 Bft) NO 35 2 min 0,000 mm 1,8 UV-I 454 W/m 15,5 C 18,1 C 19,3 km/h (3 Bft) 100,00 %
15.08.2016 09:28 20,2 C 73 % 1019,7 hPa 0,0 l/m 15,4 km/h (3 Bft) O-NO 59 2 min 0,000 mm 1,8 UV-I 464 W/m 15,2 C 17,4 C 20,9 km/h (4 Bft) 100,00 %
15.08.2016 09:30 20,2 C 73 % 1019,6 hPa 0,0 l/m 16,0 km/h (3 Bft) O-NO 69 2 min 0,000 mm 1,9 UV-I 464 W/m 15,2 C 17,3 C 22,5 km/h (4 Bft) 100,00 %
15.08.2016 09:32 20,2 C 72 % 1019,6 hPa 0,0 l/m 15,6 km/h (3 Bft) O 95 2 min 0,000 mm 1,9 UV-I 472 W/m 15,0 C 17,4 C 20,9 km/h (4 Bft) 100,00 %
15.08.2016 09:34 20,2 C 73 % 1019,6 hPa 0,0 l/m 14,3 km/h (3 Bft) NO 49 2 min 0,000 mm 2,0 UV-I 478 W/m 15,2 C 17,7 C 20,9 km/h (4 Bft) 100,00 %
15.08.2016 09:36 20,2 C 73 % 1019,6 hPa 0,0 l/m 12,8 km/h (3 Bft) O-NO 67 2 min 0,000 mm 2,0 UV-I 481 W/m 15,2 C 18,0 C 20,9 km/h (4 Bft) 97,37 %
15.08.2016 09:38 20,3 C 72 % 1019,6 hPa 0,0 l/m 17,0 km/h (3 Bft) O 86 2 min 0,000 mm 2,0 UV-I 474 W/m 15,1 C 17,2 C 24,1 km/h (4 Bft) 100,00 %
15.08.2016 09:40 20,3 C 73 % 1019,6 hPa 0,0 l/m 13,0 km/h (3 Bft) NO 43 2 min 0,000 mm 2,1 UV-I 476 W/m 15,3 C 18,1 C 19,3 km/h (3 Bft) 96,00 %
15.08.2016 09:42 20,3 C 72 % 1019,5 hPa 0,0 l/m 15,5 km/h (3 Bft) NO 55 2 min 0,000 mm 2,1 UV-I 481 W/m 15,1 C 17,5 C 22,5 km/h (4 Bft) 98,00 %
15.08.2016 09:44 20,3 C 72 % 1019,5 hPa 0,0 l/m 15,2 km/h (3 Bft) O-NO 72 2 min 0,000 mm 2,2 UV-I 496 W/m 15,1 C 17,6 C 19,3 km/h (3 Bft) 100,00 %
15.08.2016 09:46 20,4 C 73 % 1019,5 hPa 0,0 l/m 16,6 km/h (3 Bft) O-NO 69 2 min 0,000 mm 2,2 UV-I 504 W/m 15,4 C 17,4 C 24,1 km/h (4 Bft) 98,00 %
15.08.2016 09:48 20,4 C 73 % 1019,6 hPa 0,0 l/m 14,3 km/h (3 Bft) O-NO 57 2 min 0,000 mm 2,2 UV-I 508 W/m 15,4 C 17,9 C 24,1 km/h (4 Bft) 98,11 %
15.08.2016 09:50 20,6 C 74 % 1019,6 hPa 0,0 l/m 13,5 km/h (3 Bft) NO 46 2 min 0,000 mm 2,2 UV-I 491 W/m 15,8 C 18,3 C 25,7 km/h (4 Bft) 100,00 %
15.08.2016 09:52 20,6 C 73 % 1019,6 hPa 0,0 l/m 17,6 km/h (3 Bft) N-NO 31 2 min 0,000 mm 2,3 UV-I 510 W/m 15,6 C 17,4 C 24,1 km/h (4 Bft) 96,00 %
15.08.2016 09:54 20,6 C 72 % 1019,6 hPa 0,0 l/m 16,1 km/h (3 Bft) O-NO 58 2 min 0,000 mm 2,3 UV-I 495 W/m 15,4 C 17,7 C 24,1 km/h (4 Bft) 98,00 %
15.08.2016 09:56 20,6 C 73 % 1019,6 hPa 0,0 l/m 15,9 km/h (3 Bft) O-NO 61 2 min 0,000 mm 2,4 UV-I 528 W/m 15,6 C 17,8 C 20,9 km/h (4 Bft) 97,44 %
15.08.2016 09:58 20,5 C 72 % 1019,5 hPa 0,0 l/m 15,9 km/h (3 Bft) NO 36 2 min 0,000 mm 2,4 UV-I 539 W/m 15,3 C 17,7 C 24,1 km/h (4 Bft) 94,55 %
15.08.2016 10:00 20,5 C 73 % 1019,5 hPa 0,0 l/m 16,6 km/h (3 Bft) NO 44 2 min 0,000 mm 2,5 UV-I 554 W/m 15,5 C 17,5 C 22,5 km/h (4 Bft) 97,44 %
15.08.2016 10:02 20,6 C 74 % 1019,5 hPa 0,0 l/m 16,5 km/h (3 Bft) NO 39 2 min 0,305 mm 2,4 UV-I 500 W/m 15,8 C 17,7 C 20,9 km/h (4 Bft) 95,74 %
15.08.2016 10:04 20,6 C 74 % 1019,5 hPa 0,0 l/m 15,5 km/h (3 Bft) O-NO 57 2 min 0,000 mm 2,5 UV-I 482 W/m 15,8 C 17,9 C 22,5 km/h (4 Bft) 97,87 %
15.08.2016 10:06 20,7 C 74 % 1019,4 hPa 0,0 l/m 15,6 km/h (3 Bft) NO 50 2 min 0,000 mm 2,4 UV-I 545 W/m 15,9 C 18,0 C 20,9 km/h (4 Bft) 98,00 %
15.08.2016 10:08 20,8 C 74 % 1019,4 hPa 0,0 l/m 15,4 km/h (3 Bft) O-NO 71 2 min 0,000 mm 2,6 UV-I 554 W/m 16,0 C 18,1 C 22,5 km/h (4 Bft) 97,87 %
15.08.2016 10:10 20,9 C 73 % 1019,4 hPa 0,0 l/m 17,2 km/h (3 Bft) O-NO 74 2 min 0,000 mm 2,7 UV-I 561 W/m 15,9 C 17,9 C 22,5 km/h (4 Bft) 96,23 %
15.08.2016 10:12 20,9 C 72 % 1019,4 hPa 0,0 l/m 17,0 km/h (3 Bft) NO 49 2 min 0,000 mm 2,8 UV-I 578 W/m 15,7 C 17,9 C 22,5 km/h (4 Bft) 97,37 %
15.08.2016 10:14 21,0 C 73 % 1019,4 hPa 0,0 l/m 17,4 km/h (3 Bft) O-NO 66 2 min 0,000 mm 2,8 UV-I 584 W/m 16,0 C 18,0 C 25,7 km/h (4 Bft) 96,23 %
15.08.2016 10:16 21,0 C 73 % 1019,5 hPa 0,0 l/m 17,9 km/h (3 Bft) NO 55 2 min 0,000 mm 2,8 UV-I 575 W/m 16,0 C 17,9 C 24,1 km/h (4 Bft) 97,56 %
15.08.2016 10:18 21,0 C 73 % 1019,5 hPa 0,0 l/m 14,9 km/h (3 Bft) O-NO 63 2 min 0,000 mm 2,9 UV-I 579 W/m 16,0 C 18,5 C 20,9 km/h (4 Bft) 96,00 %
15.08.2016 10:20 21,0 C 73 % 1019,5 hPa 0,0 l/m 16,3 km/h (3 Bft) NO 53 2 min 0,000 mm 3,0 UV-I 596 W/m 16,0 C 18,2 C 22,5 km/h (4 Bft) 95,74 %
15.08.2016 10:22 21,1 C 73 % 1019,4 hPa 0,0 l/m 12,2 km/h (2 Bft) O-NO 67 2 min 0,000 mm 3,0 UV-I 602 W/m 16,1 C 19,2 C 20,9 km/h (4 Bft) 100,00 %
15.08.2016 10:24 21,3 C 73 % 1019,5 hPa 0,0 l/m 12,1 km/h (2 Bft) NO 43 2 min 0,000 mm 3,0 UV-I 597 W/m 16,3 C 19,5 C 19,3 km/h (3 Bft) 96,88 %
15.08.2016 10:26 21,4 C 72 % 1019,5 hPa 0,0 l/m 15,2 km/h (3 Bft) NO 55 2 min 0,000 mm 3,1 UV-I 597 W/m 16,1 C 18,9 C 22,5 km/h (4 Bft) 98,00 %
15.08.2016 10:28 21,3 C 72 % 1019,5 hPa 0,0 l/m 11,5 km/h (2 Bft) O-NO 65 2 min 0,000 mm 3,1 UV-I 594 W/m 16,0 C 19,7 C 19,3 km/h (3 Bft) 98,00 %
15.08.2016 10:30 21,3 C 73 % 1019,5 hPa 0,0 l/m 9,6 km/h (2 Bft) N-NO 28 2 min 0,000 mm 3,2 UV-I 613 W/m 16,3 C 20,2 C 17,7 km/h (3 Bft) 100,00 %
15.08.2016 10:32 21,5 C 73 % 1019,4 hPa 0,0 l/m 14,3 km/h (3 Bft) N-NO 29 2 min 0,000 mm 3,2 UV-I 607 W/m 16,4 C 19,2 C 20,9 km/h (4 Bft) 100,00 %
15.08.2016 10:34 21,6 C 73 % 1019,4 hPa 0,0 l/m 12,8 km/h (3 Bft) NO 55 2 min 0,000 mm 3,3 UV-I 629 W/m 16,5 C 19,7 C 20,9 km/h (4 Bft) 97,87 %
15.08.2016 10:36 21,6 C 72 % 1019,3 hPa 0,0 l/m 10,4 km/h (2 Bft) O-NO 61 2 min 0,000 mm 3,3 UV-I 631 W/m 16,3 C 20,3 C 14,5 km/h (3 Bft) 100,00 %
15.08.2016 10:38 21,6 C 72 % 1019,3 hPa 0,0 l/m 14,0 km/h (3 Bft) NO 39 2 min 0,000 mm 3,4 UV-I 644 W/m 16,3 C 19,4 C 24,1 km/h (4 Bft) 100,00 %
15.08.2016 10:40 21,5 C 70 % 1019,4 hPa 0,0 l/m 14,8 km/h (3 Bft) O 79 2 min 0,000 mm 3,4 UV-I 617 W/m 15,8 C 19,1 C 19,3 km/h (3 Bft) 100,00 %
15.08.2016 10:42 21,5 C 71 % 1019,3 hPa 0,0 l/m 14,1 km/h (3 Bft) NO 49 2 min 0,000 mm 3,5 UV-I 655 W/m 16,0 C 19,3 C 20,9 km/h (4 Bft) 100,00 %
15.08.2016 10:44 21,6 C 71 % 1019,4 hPa 0,0 l/m 15,0 km/h (3 Bft) O-NO 57 2 min 0,000 mm 3,5 UV-I 658 W/m 16,1 C 19,2 C 17,7 km/h (3 Bft) 100,00 %
15.08.2016 10:46 21,6 C 71 % 1019,4 hPa 0,0 l/m 11,0 km/h (2 Bft) O-NO 67 2 min 0,000 mm 3,6 UV-I 678 W/m 16,1 C 20,1 C 17,7 km/h (3 Bft) 100,00 %
15.08.2016 10:48 21,6 C 70 % 1019,4 hPa 0,0 l/m 16,7 km/h (3 Bft) O-NO 66 2 min 0,000 mm 3,6 UV-I 686 W/m 15,9 C 18,9 C 20,9 km/h (4 Bft) 100,00 %
15.08.2016 10:50 21,7 C 69 % 1019,4 hPa 0,0 l/m 16,5 km/h (3 Bft) NO 45 2 min 0,000 mm 3,8 UV-I 704 W/m 15,8 C 19,0 C 20,9 km/h (4 Bft) 97,87 %
15.08.2016 10:52 21,7 C 71 % 1019,3 hPa 0,0 l/m 10,8 km/h (2 Bft) NO 45 2 min 0,000 mm 3,8 UV-I 704 W/m 16,2 C 20,3 C 16,1 km/h (3 Bft) 100,00 %
15.08.2016 10:54 21,8 C 72 % 1019,3 hPa 0,0 l/m 10,0 km/h (2 Bft) NO 50 2 min 0,000 mm 3,9 UV-I 689 W/m 16,5 C 20,6 C 16,1 km/h (3 Bft) 100,00 %
15.08.2016 10:56 21,9 C 70 % 1019,3 hPa 0,0 l/m 12,3 km/h (3 Bft) O-NO 69 2 min 0,000 mm 3,9 UV-I 710 W/m 16,2 C 20,1 C 20,9 km/h (4 Bft) 100,00 %
15.08.2016 10:58 22,1 C 70 % 1019,3 hPa 0,0 l/m 13,3 km/h (3 Bft) O-NO 65 2 min 0,000 mm 4,0 UV-I 742 W/m 16,4 C 20,1 C 19,3 km/h (3 Bft) 100,00 %
15.08.2016 11:00 22,1 C 70 % 1019,3 hPa 0,0 l/m 9,9 km/h (2 Bft) NO 49 2 min 0,000 mm 4,1 UV-I 751 W/m 16,4 C 21,0 C 17,7 km/h (3 Bft) 100,00 %
15.08.2016 11:02 22,3 C 70 % 1019,2 hPa 0,0 l/m 13,1 km/h (3 Bft) O-NO 62 2 min 0,406 mm 4,0 UV-I 659 W/m 16,6 C 20,4 C 19,3 km/h (3 Bft) 100,00 %
15.08.2016 11:04 22,4 C 70 % 1019,2 hPa 0,0 l/m 11,2 km/h (2 Bft) NO 53 2 min 0,000 mm 3,8 UV-I 647 W/m 16,7 C 21,0 C 19,3 km/h (3 Bft) 100,00 %
15.08.2016 11:06 22,4 C 69 % 1019,2 hPa 0,0 l/m 12,0 km/h (2 Bft) NO 44 2 min 0,000 mm 3,8 UV-I 635 W/m 16,4 C 20,8 C 19,3 km/h (3 Bft) 100,00 %
15.08.2016 11:08 22,4 C 68 % 1019,2 hPa 0,0 l/m 17,1 km/h (3 Bft) O 86 2 min 0,000 mm 4,0 UV-I 689 W/m 16,2 C 19,8 C 22,5 km/h (4 Bft) 100,00 %
15.08.2016 11:10 22,2 C 68 % 1019,3 hPa 0,0 l/m 11,7 km/h (2 Bft) O-NO 57 2 min 0,000 mm 4,1 UV-I 734 W/m 16,0 C 20,6 C 16,1 km/h (3 Bft) 100,00 %
15.08.2016 11:12 22,2 C 68 % 1019,2 hPa 0,0 l/m 12,8 km/h (3 Bft) O-NO 63 2 min 0,000 mm 4,0 UV-I 704 W/m 16,0 C 20,4 C 19,3 km/h (3 Bft) 97,37 %
15.08.2016 11:14 22,2 C 68 % 1019,3 hPa 0,0 l/m 17,5 km/h (3 Bft) NO 51 2 min 0,000 mm 4,1 UV-I 698 W/m 16,0 C 19,5 C 22,5 km/h (4 Bft) 100,00 %
15.08.2016 11:16 22,3 C 69 % 1019,2 hPa 0,0 l/m 16,8 km/h (3 Bft) N-NW 342 2 min 0,000 mm 4,3 UV-I 746 W/m 16,3 C 19,7 C 24,1 km/h (4 Bft) 100,00 %
15.08.2016 11:18 22,7 C 70 % 1019,2 hPa 0,0 l/m 11,9 km/h (2 Bft) O-NO 65 2 min 0,000 mm 4,0 UV-I 684 W/m 16,9 C 21,2 C 22,5 km/h (4 Bft) 96,00 %
15.08.2016 11:20 22,7 C 69 % 1019,3 hPa 0,0 l/m 10,6 km/h (2 Bft) NO 36 2 min 0,000 mm 4,1 UV-I 703 W/m 16,7 C 21,5 C 19,3 km/h (3 Bft) 100,00 %
15.08.2016 11:22 22,8 C 68 % 1019,2 hPa 0,0 l/m 11,7 km/h (2 Bft) N-NO 28 2 min 0,000 mm 4,2 UV-I 707 W/m 16,6 C 21,3 C 19,3 km/h (3 Bft) 100,00 %
15.08.2016 11:24 22,9 C 67 % 1019,3 hPa 0,0 l/m 13,6 km/h (3 Bft) NO 41 2 min 0,000 mm 4,5 UV-I 794 W/m 16,4 C 21,0 C 20,9 km/h (4 Bft) 100,00 %
15.08.2016 11:26 22,8 C 67 % 1019,3 hPa 0,0 l/m 14,5 km/h (3 Bft) N-NO 17 2 min 0,000 mm 4,4 UV-I 760 W/m 16,3 C 20,7 C 19,3 km/h (3 Bft) 96,23 %
15.08.2016 11:28 22,8 C 68 % 1019,2 hPa 0,0 l/m 10,4 km/h (2 Bft) N-NO 23 2 min 0,000 mm 4,5 UV-I 766 W/m 16,6 C 21,6 C 19,3 km/h (3 Bft) 94,00 %
15.08.2016 11:30 22,9 C 66 % 1019,2 hPa 0,0 l/m 9,0 km/h (2 Bft) O-NO 74 2 min 0,000 mm 4,2 UV-I 777 W/m 16,2 C 22,1 C 14,5 km/h (3 Bft) 95,12 %
15.08.2016 11:32 22,8 C 67 % 1019,2 hPa 0,0 l/m 15,1 km/h (3 Bft) O-NO 67 2 min 0,000 mm 4,2 UV-I 789 W/m 16,3 C 20,6 C 25,7 km/h (4 Bft) 98,11 %
15.08.2016 11:34 22,6 C 65 % 1019,2 hPa 0,0 l/m 15,4 km/h (3 Bft) N-NO 30 2 min 0,000 mm 4,0 UV-I 745 W/m 15,7 C 20,3 C 22,5 km/h (4 Bft) 100,00 %
15.08.2016 11:36 22,6 C 66 % 1019,2 hPa 0,0 l/m 16,2 km/h (3 Bft) NO 46 2 min 0,000 mm 3,8 UV-I 706 W/m 15,9 C 20,2 C 20,9 km/h (4 Bft) 97,37 %
15.08.2016 11:38 22,4 C 67 % 1019,2 hPa 0,0 l/m 15,5 km/h (3 Bft) NO 38 2 min 0,000 mm 3,4 UV-I 632 W/m 16,0 C 20,1 C 24,1 km/h (4 Bft) 100,00 %
15.08.2016 11:40 22,4 C 67 % 1019,2 hPa 0,0 l/m 15,2 km/h (3 Bft) O-NO 60 0 min 0,000 mm 3,3 UV-I 378 W/m 16,0 C 20,1 C 20,9 km/h (4 Bft) 100,00 %
15.08.2016 11:42 22,2 C 66 % 1019,2 hPa 0,0 l/m 10,9 km/h (2 Bft) O 83 2 min 0,000 mm 3,8 UV-I 473 W/m 15,5 C 20,8 C 17,7 km/h (3 Bft) 97,14 %
15.08.2016 11:44 22,3 C 67 % 1019,2 hPa 0,0 l/m 13,4 km/h (3 Bft) O-NO 67 2 min 0,000 mm 3,7 UV-I 582 W/m 15,9 C 20,4 C 20,9 km/h (4 Bft) 100,00 %
15.08.2016 11:46 22,3 C 67 % 1019,2 hPa 0,0 l/m 8,9 km/h (2 Bft) NO 52 2 min 0,000 mm 3,5 UV-I 473 W/m 15,9 C 21,5 C 14,5 km/h (3 Bft) 96,43 %
15.08.2016 11:48 22,3 C 67 % 1019,2 hPa 0,0 l/m 12,9 km/h (3 Bft) NO 44 2 min 0,000 mm 3,4 UV-I 449 W/m 15,9 C 20,5 C 17,7 km/h (3 Bft) 94,00 %
15.08.2016 11:50 22,3 C 66 % 1019,1 hPa 0,0 l/m 11,6 km/h (2 Bft) O-NO 78 2 min 0,000 mm 3,4 UV-I 451 W/m 15,6 C 20,8 C 16,1 km/h (3 Bft) 97,87 %
15.08.2016 11:52 22,3 C 67 % 1019,2 hPa 0,0 l/m 10,6 km/h (2 Bft) NO 55 2 min 0,000 mm 3,6 UV-I 504 W/m 15,9 C 21,0 C 17,7 km/h (3 Bft) 97,44 %
15.08.2016 11:54 22,3 C 68 % 1019,1 hPa 0,0 l/m 13,2 km/h (3 Bft) N-NO 19 2 min 0,000 mm 3,7 UV-I 541 W/m 16,1 C 20,4 C 22,5 km/h (4 Bft) 94,00 %
15.08.2016 11:56 22,4 C 66 % 1019,1 hPa 0,0 l/m 12,6 km/h (3 Bft) NO 53 2 min 0,000 mm 3,9 UV-I 576 W/m 15,7 C 20,7 C 20,9 km/h (4 Bft) 98,08 %
15.08.2016 11:58 22,5 C 69 % 1019,1 hPa 0,0 l/m 13,5 km/h (3 Bft) NO 38 2 min 0,000 mm 3,8 UV-I 548 W/m 16,5 C 20,6 C 19,3 km/h (3 Bft) 97,62 %
15.08.2016 12:00 22,6 C 67 % 1019,1 hPa 0,0 l/m 12,5 km/h (3 Bft) NO 40 2 min 0,432 mm 3,8 UV-I 559 W/m 16,2 C 20,9 C 17,7 km/h (3 Bft) 97,87 %
15.08.2016 12:02 22,6 C 66 % 1019,1 hPa 0,0 l/m 10,3 km/h (2 Bft) O-NO 59 2 min 0,000 mm 3,5 UV-I 490 W/m 15,9 C 21,4 C 16,1 km/h (3 Bft) 95,74 %
15.08.2016 12:04 22,6 C 65 % 1019,1 hPa 0,0 l/m 13,4 km/h (3 Bft) NO 53 2 min 0,000 mm 3,5 UV-I 505 W/m 15,7 C 20,7 C 19,3 km/h (3 Bft) 95,74 %
15.08.2016 12:06 22,4 C 66 % 1019,1 hPa 0,0 l/m 13,4 km/h (3 Bft) O-NO 78 2 min 0,000 mm 3,5 UV-I 516 W/m 15,7 C 20,5 C 19,3 km/h (3 Bft) 98,00 %
15.08.2016 12:08 22,3 C 67 % 1019,0 hPa 0,0 l/m 12,0 km/h (2 Bft) O-NO 60 2 min 0,000 mm 3,6 UV-I 524 W/m 15,9 C 20,7 C 19,3 km/h (3 Bft) 97,37 %
15.08.2016 12:10 22,4 C 65 % 1019,0 hPa 0,0 l/m 15,5 km/h (3 Bft) NO 50 2 min 0,000 mm 3,4 UV-I 488 W/m 15,5 C 20,1 C 25,7 km/h (4 Bft) 98,21 %
15.08.2016 12:12 22,3 C 65 % 1019,0 hPa 0,0 l/m 14,2 km/h (3 Bft) O 90 2 min 0,000 mm 3,4 UV-I 469 W/m 15,4 C 20,2 C 20,9 km/h (4 Bft) 94,29 %
15.08.2016 12:14 22,3 C 66 % 1019,0 hPa 0,0 l/m 15,5 km/h (3 Bft) O-NO 58 2 min 0,000 mm 3,3 UV-I 447 W/m 15,6 C 19,9 C 20,9 km/h (4 Bft) 98,00 %
15.08.2016 12:16 22,3 C 65 % 1019,0 hPa 0,0 l/m 14,0 km/h (3 Bft) O-NO 65 2 min 0,000 mm 3,4 UV-I 455 W/m 15,4 C 20,2 C 19,3 km/h (3 Bft) 93,62 %
15.08.2016 12:18 22,3 C 65 % 1019,0 hPa 0,0 l/m 13,2 km/h (3 Bft) O-NO 59 2 min 0,000 mm 3,5 UV-I 471 W/m 15,4 C 20,4 C 22,5 km/h (4 Bft) 98,11 %
15.08.2016 12:20 22,3 C 67 % 1019,0 hPa 0,0 l/m 8,6 km/h (2 Bft) O-NO 63 2 min 0,000 mm 3,4 UV-I 459 W/m 15,9 C 21,6 C 14,5 km/h (3 Bft) 95,74 %
15.08.2016 12:22 22,3 C 66 % 1019,0 hPa 0,0 l/m 11,4 km/h (2 Bft) O-NO 62 2 min 0,000 mm 3,4 UV-I 458 W/m 15,6 C 20,8 C 19,3 km/h (3 Bft) 95,74 %
15.08.2016 12:24 22,3 C 67 % 1018,9 hPa 0,0 l/m 10,4 km/h (2 Bft) O-NO 76 2 min 0,000 mm 3,5 UV-I 487 W/m 15,9 C 21,1 C 19,3 km/h (3 Bft) 100,00 %
15.08.2016 12:26 22,3 C 68 % 1018,9 hPa 0,0 l/m 11,4 km/h (2 Bft) N-NO 15 2 min 0,000 mm 3,6 UV-I 505 W/m 16,1 C 20,8 C 17,7 km/h (3 Bft) 100,00 %
15.08.2016 12:28 22,4 C 67 % 1018,9 hPa 0,0 l/m 5,9 km/h (2 Bft) NO 38 0 min 0,000 mm 3,3 UV-I 400 W/m 16,0 C 22,4 C 11,3 km/h (2 Bft) 100,00 %
15.08.2016 12:30 22,4 C 65 % 1018,9 hPa 0,0 l/m 12,1 km/h (2 Bft) O-NO 65 0 min 0,000 mm 3,4 UV-I 338 W/m 15,5 C 20,8 C 17,7 km/h (3 Bft) 100,00 %
15.08.2016 12:32 22,5 C 68 % 1018,8 hPa 0,0 l/m 11,2 km/h (2 Bft) N 11 0 min 0,000 mm 3,5 UV-I 308 W/m 16,3 C 21,1 C 17,7 km/h (3 Bft) 100,00 %
15.08.2016 12:34 22,6 C 67 % 1018,9 hPa 0,0 l/m 13,8 km/h (3 Bft) NO 38 2 min 0,000 mm 3,9 UV-I 497 W/m 16,2 C 20,6 C 19,3 km/h (3 Bft) 100,00 %
15.08.2016 12:36 22,7 C 67 % 1018,8 hPa 0,0 l/m 8,4 km/h (2 Bft) NO 41 2 min 0,000 mm 4,4 UV-I 664 W/m 16,2 C 22,1 C 16,1 km/h (3 Bft) 100,00 %
15.08.2016 12:38 22,9 C 68 % 1018,8 hPa 0,0 l/m 7,4 km/h (2 Bft) O-NO 76 2 min 0,000 mm 4,1 UV-I 586 W/m 16,7 C 22,6 C 12,9 km/h (3 Bft) 100,00 %
15.08.2016 12:40 22,9 C 67 % 1018,8 hPa 0,0 l/m 8,0 km/h (2 Bft) O-NO 62 2 min 0,000 mm 4,1 UV-I 569 W/m 16,4 C 22,4 C 11,3 km/h (2 Bft) 100,00 %
15.08.2016 12:42 22,9 C 64 % 1018,7 hPa 0,0 l/m 11,1 km/h (2 Bft) O-NO 67 2 min 0,000 mm 4,4 UV-I 615 W/m 15,7 C 21,6 C 19,3 km/h (3 Bft) 100,00 %
15.08.2016 12:44 22,8 C 65 % 1018,7 hPa 0,0 l/m 10,5 km/h (2 Bft) NO 49 2 min 0,000 mm 4,3 UV-I 607 W/m 15,9 C 21,6 C 14,5 km/h (3 Bft) 100,00 %
15.08.2016 12:46 22,8 C 65 % 1018,7 hPa 0,0 l/m 12,2 km/h (2 Bft) O 80 2 min 0,000 mm 4,8 UV-I 702 W/m 15,9 C 21,2 C 17,7 km/h (3 Bft) 98,00 %
15.08.2016 12:48 22,9 C 65 % 1018,7 hPa 0,0 l/m 9,7 km/h (2 Bft) NO 51 2 min 0,000 mm 4,7 UV-I 692 W/m 16,0 C 21,9 C 16,1 km/h (3 Bft) 100,00 %
15.08.2016 12:50 23,0 C 64 % 1018,6 hPa 0,0 l/m 11,9 km/h (2 Bft) O-NO 65 2 min 0,000 mm 4,7 UV-I 711 W/m 15,8 C 21,5 C 17,7 km/h (3 Bft) 100,00 %
15.08.2016 12:52 23,0 C 63 % 1018,6 hPa 0,0 l/m 11,8 km/h (2 Bft) NO 53 2 min 0,000 mm 4,8 UV-I 682 W/m 15,6 C 21,5 C 19,3 km/h (3 Bft) 100,00 %
15.08.2016 12:54 23,0 C 61 % 1018,6 hPa 0,0 l/m 15,3 km/h (3 Bft) NO 42 2 min 0,000 mm 4,7 UV-I 671 W/m 15,1 C 20,8 C 19,3 km/h (3 Bft) 100,00 %
15.08.2016 12:56 22,9 C 64 % 1018,6 hPa 0,0 l/m 11,5 km/h (2 Bft) NO 42 2 min 0,000 mm 4,8 UV-I 698 W/m 15,7 C 21,5 C 17,7 km/h (3 Bft) 100,00 %
15.08.2016 12:58 23,2 C 62 % 1018,6 hPa 0,0 l/m 13,4 km/h (3 Bft) NO 44 2 min 0,000 mm 4,9 UV-I 767 W/m 15,5 C 21,4 C 19,3 km/h (3 Bft) 96,23 %
15.08.2016 13:00 23,2 C 62 % 1018,5 hPa 0,0 l/m 10,6 km/h (2 Bft) O-NO 74 2 min 0,381 mm 4,8 UV-I 687 W/m 15,5 C 22,0 C 16,1 km/h (3 Bft) 100,00 %
15.08.2016 13:02 23,2 C 64 % 1018,5 hPa 0,0 l/m 12,5 km/h (3 Bft) O-SO 109 2 min 0,000 mm 4,9 UV-I 694 W/m 16,0 C 21,6 C 20,9 km/h (4 Bft) 100,00 %
15.08.2016 13:04 23,3 C 62 % 1018,6 hPa 0,0 l/m 11,2 km/h (2 Bft) O-NO 70 2 min 0,000 mm 5,0 UV-I 768 W/m 15,6 C 22,0 C 14,5 km/h (3 Bft) 100,00 %
15.08.2016 13:06 23,2 C 62 % 1018,5 hPa 0,0 l/m 8,6 km/h (2 Bft) O 94 2 min 0,000 mm 5,0 UV-I 774 W/m 15,5 C 22,5 C 14,5 km/h (3 Bft) 100,00 %
15.08.2016 13:08 23,2 C 64 % 1018,4 hPa 0,0 l/m 11,8 km/h (2 Bft) O-NO 63 2 min 0,000 mm 4,5 UV-I 788 W/m 16,0 C 21,8 C 17,7 km/h (3 Bft) 100,00 %
15.08.2016 13:10 23,3 C 64 % 1018,4 hPa 0,0 l/m 12,1 km/h (2 Bft) NO 36 2 min 0,000 mm 4,3 UV-I 788 W/m 16,1 C 21,8 C 17,7 km/h (3 Bft) 98,36 %
15.08.2016 13:12 23,3 C 64 % 1018,4 hPa 0,0 l/m 8,7 km/h (2 Bft) N-NO 29 2 min 0,000 mm 3,9 UV-I 570 W/m 16,1 C 22,6 C 16,1 km/h (3 Bft) 100,00 %
15.08.2016 13:14 23,4 C 64 % 1018,4 hPa 0,0 l/m 8,0 km/h (2 Bft) N-NO 17 0 min 0,000 mm 3,5 UV-I 441 W/m 16,2 C 22,9 C 11,3 km/h (2 Bft) 100,00 %
15.08.2016 13:16 23,3 C 64 % 1018,4 hPa 0,0 l/m 6,8 km/h (2 Bft) NO 49 0 min 0,000 mm 3,4 UV-I 392 W/m 16,1 C 23,2 C 11,3 km/h (2 Bft) 100,00 %
15.08.2016 13:18 23,2 C 62 % 1018,4 hPa 0,0 l/m 10,0 km/h (2 Bft) O-NO 69 0 min 0,000 mm 3,5 UV-I 412 W/m 15,5 C 22,2 C 16,1 km/h (3 Bft) 100,00 %
15.08.2016 13:20 23,1 C 63 % 1018,4 hPa 0,0 l/m 11,8 km/h (2 Bft) O-SO 108 0 min 0,000 mm 3,1 UV-I 396 W/m 15,7 C 21,6 C 14,5 km/h (3 Bft) 100,00 %
15.08.2016 13:22 23,0 C 63 % 1018,4 hPa 0,0 l/m 7,3 km/h (2 Bft) O-NO 67 0 min 0,000 mm 3,3 UV-I 319 W/m 15,6 C 22,7 C 12,9 km/h (3 Bft) 100,00 %
15.08.2016 13:24 22,9 C 63 % 1018,4 hPa 0,0 l/m 5,6 km/h (1 Bft) N-NO 23 2 min 0,000 mm 3,9 UV-I 470 W/m 15,5 C 22,9 C 8,0 km/h (2 Bft) 100,00 %
15.08.2016 13:26 23,3 C 66 % 1018,4 hPa 0,0 l/m 6,4 km/h (2 Bft) NO 34 2 min 0,000 mm 4,0 UV-I 594 W/m 16,6 C 23,3 C 11,3 km/h (2 Bft) 100,00 %
15.08.2016 13:28 23,5 C 64 % 1018,4 hPa 0,0 l/m 5,7 km/h (1 Bft) N-NO 15 2 min 0,000 mm 4,1 UV-I 533 W/m 16,3 C 23,5 C 14,5 km/h (3 Bft) 100,00 %
15.08.2016 13:30 23,8 C 63 % 1018,3 hPa 0,0 l/m 10,5 km/h (2 Bft) N-NO 13 2 min 0,000 mm 4,4 UV-I 679 W/m 16,3 C 22,7 C 16,1 km/h (3 Bft) 97,14 %
15.08.2016 13:32 23,9 C 64 % 1018,4 hPa 0,0 l/m 7,3 km/h (2 Bft) N-NO 24 2 min 0,000 mm 4,5 UV-I 724 W/m 16,7 C 23,6 C 12,9 km/h (3 Bft) 100,00 %
15.08.2016 13:34 23,9 C 61 % 1018,4 hPa 0,0 l/m 8,6 km/h (2 Bft) NO 55 2 min 0,000 mm 4,7 UV-I 754 W/m 15,9 C 23,3 C 14,5 km/h (3 Bft) 100,00 %
15.08.2016 13:36 23,9 C 63 % 1018,3 hPa 0,0 l/m 11,5 km/h (2 Bft) NO 52 2 min 0,000 mm 4,5 UV-I 695 W/m 16,4 C 22,6 C 20,9 km/h (4 Bft) 100,00 %
15.08.2016 13:38 23,7 C 61 % 1018,3 hPa 0,0 l/m 12,4 km/h (3 Bft) O-NO 57 2 min 0,000 mm 4,0 UV-I 598 W/m 15,7 C 22,2 C 17,7 km/h (3 Bft) 95,12 %
15.08.2016 13:40 23,5 C 61 % 1018,3 hPa 0,0 l/m 11,9 km/h (2 Bft) O 83 2 min 0,000 mm 3,7 UV-I 486 W/m 15,5 C 22,1 C 17,7 km/h (3 Bft) 100,00 %
15.08.2016 13:42 23,4 C 63 % 1018,3 hPa 0,0 l/m 10,4 km/h (2 Bft) O-NO 74 2 min 0,000 mm 4,4 UV-I 471 W/m 15,9 C 22,3 C 16,1 km/h (3 Bft) 97,56 %
15.08.2016 13:44 23,5 C 63 % 1018,3 hPa 0,0 l/m 10,2 km/h (2 Bft) O-NO 69 2 min 0,000 mm 4,0 UV-I 608 W/m 16,0 C 22,5 C 14,5 km/h (3 Bft) 98,00 %
15.08.2016 13:46 23,5 C 61 % 1018,3 hPa 0,0 l/m 12,6 km/h (3 Bft) O-NO 66 2 min 0,000 mm 4,0 UV-I 626 W/m 15,5 C 21,9 C 19,3 km/h (3 Bft) 97,87 %
15.08.2016 13:48 23,4 C 63 % 1018,3 hPa 0,0 l/m 9,5 km/h (2 Bft) O 97 2 min 0,000 mm 4,4 UV-I 602 W/m 15,9 C 22,5 C 14,5 km/h (3 Bft) 96,23 %
15.08.2016 13:50 23,4 C 64 % 1018,3 hPa 0,0 l/m 7,0 km/h (2 Bft) NO 50 2 min 0,000 mm 4,5 UV-I 671 W/m 16,2 C 23,2 C 11,3 km/h (2 Bft) 97,62 %
15.08.2016 13:52 23,5 C 62 % 1018,2 hPa 0,0 l/m 5,9 km/h (2 Bft) O 98 2 min 0,000 mm 4,4 UV-I 684 W/m 15,8 C 23,5 C 11,3 km/h (2 Bft) 100,00 %
15.08.2016 13:54 23,7 C 64 % 1018,2 hPa 0,0 l/m 6,5 km/h (2 Bft) SO 130 2 min 0,000 mm 4,1 UV-I 609 W/m 16,5 C 23,7 C 11,3 km/h (2 Bft) 97,18 %
15.08.2016 13:56 23,7 C 62 % 1018,2 hPa 0,0 l/m 7,3 km/h (2 Bft) O-NO 76 2 min 0,000 mm 4,2 UV-I 598 W/m 16,0 C 23,4 C 14,5 km/h (3 Bft) 97,56 %
15.08.2016 13:58 23,7 C 63 % 1018,2 hPa 0,0 l/m 7,3 km/h (2 Bft) O-NO 65 2 min 0,000 mm 3,9 UV-I 656 W/m 16,2 C 23,4 C 12,9 km/h (3 Bft) 98,11 %
15.08.2016 14:00 23,7 C 63 % 1018,2 hPa 0,0 l/m 5,4 km/h (1 Bft) O 90 2 min 0,406 mm 3,8 UV-I 549 W/m 16,2 C 23,7 C 12,9 km/h (3 Bft) 97,37 %
15.08.2016 14:02 23,8 C 64 % 1018,2 hPa 0,0 l/m 7,5 km/h (2 Bft) NO 42 2 min 0,000 mm 3,7 UV-I 528 W/m 16,6 C 23,5 C 14,5 km/h (3 Bft) 97,87 %
15.08.2016 14:04 23,8 C 65 % 1018,1 hPa 0,0 l/m 4,1 km/h (1 Bft) N-NO 27 2 min 0,000 mm 3,2 UV-I 478 W/m 16,8 C 23,8 C 8,0 km/h (2 Bft) 94,00 %
15.08.2016 14:06 23,8 C 65 % 1018,0 hPa 0,0 l/m 5,7 km/h (1 Bft) O-NO 69 2 min 0,000 mm 3,7 UV-I 505 W/m 16,8 C 23,8 C 17,7 km/h (3 Bft) 98,00 %
15.08.2016 14:08 23,8 C 63 % 1018,1 hPa 0,0 l/m 3,8 km/h (1 Bft) SO 131 2 min 0,000 mm 3,9 UV-I 525 W/m 16,3 C 23,8 C 6,4 km/h (2 Bft) 97,56 %
15.08.2016 14:10 23,8 C 64 % 1018,0 hPa 0,0 l/m 7,7 km/h (2 Bft) O-NO 57 2 min 0,000 mm 4,0 UV-I 651 W/m 16,6 C 23,4 C 14,5 km/h (3 Bft) 98,21 %
15.08.2016 14:12 23,9 C 62 % 1018,0 hPa 0,0 l/m 8,0 km/h (2 Bft) NO 39 2 min 0,000 mm 3,8 UV-I 591 W/m 16,2 C 23,4 C 12,9 km/h (3 Bft) 97,37 %
15.08.2016 14:14 23,8 C 61 % 1018,0 hPa 0,0 l/m 10,8 km/h (2 Bft) NO 51 2 min 0,000 mm 3,6 UV-I 514 W/m 15,8 C 22,7 C 14,5 km/h (3 Bft) 100,00 %
15.08.2016 14:16 23,8 C 62 % 1018,0 hPa 0,0 l/m 5,5 km/h (1 Bft) N-NO 17 2 min 0,000 mm 3,6 UV-I 530 W/m 16,1 C 23,8 C 9,7 km/h (2 Bft) 100,00 %
15.08.2016 14:18 23,6 C 59 % 1018,0 hPa 0,0 l/m 1,5 km/h (1 Bft) N 5 2 min 0,000 mm 3,5 UV-I 508 W/m 15,1 C 23,6 C 3,2 km/h (1 Bft) 97,87 %
15.08.2016 14:20 23,7 C 62 % 1017,9 hPa 0,0 l/m 2,8 km/h (1 Bft) O-NO 67 2 min 0,000 mm 3,6 UV-I 550 W/m 16,0 C 23,7 C 8,0 km/h (2 Bft) 100,00 %
15.08.2016 14:22 23,8 C 62 % 1017,9 hPa 0,0 l/m 7,4 km/h (2 Bft) O-NO 76 2 min 0,000 mm 3,4 UV-I 464 W/m 16,1 C 23,5 C 11,3 km/h (2 Bft) 100,00 %
15.08.2016 14:24 23,7 C 61 % 1017,9 hPa 0,0 l/m 4,0 km/h (1 Bft) NO 51 0 min 0,000 mm 3,0 UV-I 382 W/m 15,7 C 23,7 C 4,8 km/h (1 Bft) 97,14 %
15.08.2016 14:26 23,7 C 62 % 1017,9 hPa 0,0 l/m 3,4 km/h (1 Bft) O 85 0 min 0,000 mm 2,8 UV-I 359 W/m 16,0 C 23,7 C 8,0 km/h (2 Bft) 100,00 %
15.08.2016 14:28 23,6 C 62 % 1017,9 hPa 0,0 l/m 3,8 km/h (1 Bft) O-NO 59 0 min 0,000 mm 2,7 UV-I 349 W/m 15,9 C 23,6 C 8,0 km/h (2 Bft) 100,00 %
15.08.2016 14:30 23,6 C 63 % 1017,8 hPa 0,0 l/m 2,7 km/h (1 Bft) NO 50 0 min 0,000 mm 2,7 UV-I 349 W/m 16,1 C 23,6 C 4,8 km/h (1 Bft) 100,00 %
15.08.2016 14:32 23,6 C 62 % 1017,8 hPa 0,0 l/m 4,8 km/h (1 Bft) O-NO 63 0 min 0,000 mm 2,7 UV-I 354 W/m 15,9 C 23,6 C 9,7 km/h (2 Bft) 100,00 %
15.08.2016 14:34 23,7 C 64 % 1017,8 hPa 0,0 l/m 7,3 km/h (2 Bft) O-NO 65 2 min 0,000 mm 3,1 UV-I 456 W/m 16,5 C 23,4 C 12,9 km/h (3 Bft) 100,00 %
15.08.2016 14:36 23,7 C 61 % 1017,8 hPa 0,0 l/m 7,9 km/h (2 Bft) O-NO 74 2 min 0,000 mm 3,2 UV-I 486 W/m 15,7 C 23,3 C 12,9 km/h (3 Bft) 100,00 %
15.08.2016 14:38 23,7 C 61 % 1017,8 hPa 0,0 l/m 6,2 km/h (2 Bft) O-SO 106 2 min 0,000 mm 3,4 UV-I 487 W/m 15,7 C 23,7 C 11,3 km/h (2 Bft) 100,00 %
15.08.2016 14:40 23,7 C 61 % 1017,8 hPa 0,0 l/m 3,5 km/h (1 Bft) NO 54 2 min 0,000 mm 3,1 UV-I 452 W/m 15,7 C 23,7 C 6,4 km/h (2 Bft) 100,00 %
15.08.2016 14:42 23,8 C 62 % 1017,7 hPa 0,0 l/m 5,9 km/h (2 Bft) NO 47 0 min 0,000 mm 2,8 UV-I 391 W/m 16,1 C 23,8 C 8,0 km/h (2 Bft) 100,00 %
15.08.2016 14:44 23,8 C 63 % 1017,7 hPa 0,0 l/m 6,0 km/h (2 Bft) N-NO 13 0 min 0,000 mm 2,9 UV-I 416 W/m 16,3 C 23,8 C 8,0 km/h (2 Bft) 98,00 %
15.08.2016 14:46 23,8 C 61 % 1017,7 hPa 0,0 l/m 3,3 km/h (1 Bft) N-NO 33 0 min 0,000 mm 2,6 UV-I 357 W/m 15,8 C 23,8 C 6,4 km/h (2 Bft) 100,00 %
15.08.2016 14:48 23,7 C 60 % 1017,7 hPa 0,0 l/m 3,5 km/h (1 Bft) O-NO 69 0 min 0,000 mm 2,4 UV-I 337 W/m 15,5 C 23,7 C 6,4 km/h (2 Bft) 100,00 %
15.08.2016 14:50 23,7 C 62 % 1017,7 hPa 0,0 l/m 2,8 km/h (1 Bft) O-NO 59 0 min 0,000 mm 2,4 UV-I 322 W/m 16,0 C 23,7 C 4,8 km/h (1 Bft) 100,00 %
15.08.2016 14:52 23,6 C 62 % 1017,7 hPa 0,0 l/m 4,6 km/h (1 Bft) O-NO 57 0 min 0,000 mm 2,3 UV-I 300 W/m 15,9 C 23,6 C 9,7 km/h (2 Bft) 100,00 %
15.08.2016 14:54 23,6 C 61 % 1017,7 hPa 0,0 l/m 4,6 km/h (1 Bft) NO 47 0 min 0,000 mm 2,2 UV-I 301 W/m 15,6 C 23,6 C 8,0 km/h (2 Bft) 100,00 %
15.08.2016 14:56 23,6 C 64 % 1017,7 hPa 0,0 l/m 3,5 km/h (1 Bft) N-NO 15 0 min 0,000 mm 2,3 UV-I 318 W/m 16,4 C 23,6 C 8,0 km/h (2 Bft) 100,00 %
15.08.2016 14:58 23,5 C 61 % 1017,7 hPa 0,0 l/m 2,5 km/h (1 Bft) N-NO 28 0 min 0,000 mm 2,3 UV-I 315 W/m 15,5 C 23,5 C 4,8 km/h (1 Bft) 100,00 %
15.08.2016 15:00 23,5 C 63 % 1017,6 hPa 0,0 l/m 4,2 km/h (1 Bft) NO 50 0 min 0,305 mm 2,2 UV-I 303 W/m 16,0 C 23,5 C 6,4 km/h (2 Bft) 97,37 %
15.08.2016 15:02 23,5 C 60 % 1017,7 hPa 0,0 l/m 3,3 km/h (1 Bft) O-NO 60 0 min 0,000 mm 2,1 UV-I 292 W/m 15,3 C 23,5 C 6,4 km/h (2 Bft) 100,00 %
15.08.2016 15:04 23,4 C 61 % 1017,7 hPa 0,0 l/m 0,4 km/h (0 Bft) O-NO 60 0 min 0,000 mm 2,1 UV-I 292 W/m 15,4 C 23,4 C 1,6 km/h (1 Bft) 97,87 %
15.08.2016 15:06 23,4 C 65 % 1017,7 hPa 0,0 l/m 0,6 km/h (0 Bft) O-NO 60 0 min 0,000 mm 2,1 UV-I 295 W/m 16,4 C 23,4 C 3,2 km/h (1 Bft) 100,00 %
15.08.2016 15:08 23,4 C 63 % 1017,7 hPa 0,0 l/m 1,5 km/h (1 Bft) O-NO 60 0 min 0,000 mm 2,1 UV-I 302 W/m 15,9 C 23,4 C 3,2 km/h (1 Bft) 100,00 %
15.08.2016 15:10 23,5 C 63 % 1017,7 hPa 0,0 l/m 4,1 km/h (1 Bft) O-SO 106 0 min 0,000 mm 2,1 UV-I 306 W/m 16,0 C 23,5 C 6,4 km/h (2 Bft) 100,00 %
15.08.2016 15:12 23,6 C 63 % 1017,6 hPa 0,0 l/m 4,3 km/h (1 Bft) S-SO 157 0 min 0,000 mm 2,1 UV-I 313 W/m 16,1 C 23,6 C 6,4 km/h (2 Bft) 98,00 %
15.08.2016 15:14 23,5 C 62 % 1017,6 hPa 0,0 l/m 4,5 km/h (1 Bft) S 175 0 min 0,000 mm 2,1 UV-I 320 W/m 15,8 C 23,5 C 8,0 km/h (2 Bft) 100,00 %
15.08.2016 15:16 23,4 C 63 % 1017,6 hPa 0,0 l/m 4,3 km/h (1 Bft) S-SO 161 0 min 0,000 mm 2,3 UV-I 360 W/m 15,9 C 23,4 C 6,4 km/h (2 Bft) 100,00 %
15.08.2016 15:18 23,4 C 62 % 1017,6 hPa 0,0 l/m 3,1 km/h (1 Bft) S-SO 158 2 min 0,000 mm 2,5 UV-I 414 W/m 15,7 C 23,4 C 6,4 km/h (2 Bft) 100,00 %
15.08.2016 15:20 23,4 C 62 % 1017,5 hPa 0,0 l/m 3,1 km/h (1 Bft) SO 146 2 min 0,000 mm 2,7 UV-I 462 W/m 15,7 C 23,4 C 4,8 km/h (1 Bft) 100,00 %
15.08.2016 15:22 23,5 C 62 % 1017,5 hPa 0,0 l/m 4,1 km/h (1 Bft) SO 130 2 min 0,000 mm 2,9 UV-I 492 W/m 15,8 C 23,5 C 6,4 km/h (2 Bft) 100,00 %
15.08.2016 15:24 23,5 C 61 % 1017,5 hPa 0,0 l/m 5,1 km/h (1 Bft) SO 141 2 min 0,000 mm 3,3 UV-I 565 W/m 15,5 C 23,5 C 8,0 km/h (2 Bft) 100,00 %
15.08.2016 15:26 23,7 C 60 % 1017,5 hPa 0,0 l/m 2,2 km/h (1 Bft) SO 140 2 min 0,000 mm 3,4 UV-I 552 W/m 15,5 C 23,7 C 4,8 km/h (1 Bft) 97,87 %
15.08.2016 15:28 23,7 C 60 % 1017,5 hPa 0,0 l/m 2,5 km/h (1 Bft) O 95 2 min 0,000 mm 2,9 UV-I 395 W/m 15,5 C 23,7 C 9,7 km/h (2 Bft) 100,00 %
15.08.2016 15:30 23,8 C 59 % 1017,5 hPa 0,0 l/m 3,0 km/h (1 Bft) O-SO 113 2 min 0,000 mm 3,1 UV-I 607 W/m 15,3 C 23,8 C 4,8 km/h (1 Bft) 100,00 %
15.08.2016 15:32 23,8 C 62 % 1017,5 hPa 0,0 l/m 3,3 km/h (1 Bft) S 182 2 min 0,000 mm 3,6 UV-I 706 W/m 16,1 C 23,8 C 6,4 km/h (2 Bft) 100,00 %
15.08.2016 15:34 24,1 C 64 % 1017,5 hPa 0,0 l/m 3,2 km/h (1 Bft) NO 53 2 min 0,000 mm 3,3 UV-I 712 W/m 16,9 C 24,1 C 8,0 km/h (2 Bft) 95,74 %
15.08.2016 15:36 24,2 C 59 % 1017,5 hPa 0,0 l/m 1,6 km/h (1 Bft) NO 51 2 min 0,000 mm 3,5 UV-I 673 W/m 15,7 C 24,2 C 3,2 km/h (1 Bft) 98,00 %
15.08.2016 15:38 24,3 C 59 % 1017,5 hPa 0,0 l/m 6,7 km/h (2 Bft) O-NO 67 2 min 0,000 mm 3,5 UV-I 671 W/m 15,8 C 24,2 C 12,9 km/h (3 Bft) 97,37 %
15.08.2016 15:40 24,3 C 59 % 1017,4 hPa 0,0 l/m 6,9 km/h (2 Bft) NO 40 2 min 0,000 mm 3,3 UV-I 637 W/m 15,8 C 24,2 C 9,7 km/h (2 Bft) 97,87 %
15.08.2016 15:42 24,3 C 59 % 1017,4 hPa 0,0 l/m 4,2 km/h (1 Bft) N-NO 17 2 min 0,000 mm 3,3 UV-I 628 W/m 15,8 C 24,3 C 6,4 km/h (2 Bft) 98,00 %
15.08.2016 15:44 24,2 C 58 % 1017,3 hPa 0,0 l/m 1,8 km/h (1 Bft) W-NW 292 2 min 0,000 mm 3,2 UV-I 605 W/m 15,4 C 24,2 C 4,8 km/h (1 Bft) 97,87 %
15.08.2016 15:46 24,3 C 60 % 1017,3 hPa 0,0 l/m 1,6 km/h (1 Bft) N 5 2 min 0,000 mm 3,2 UV-I 603 W/m 16,0 C 24,3 C 4,8 km/h (1 Bft) 92,00 %
15.08.2016 15:48 24,4 C 59 % 1017,3 hPa 0,0 l/m 2,1 km/h (1 Bft) NO 40 2 min 0,000 mm 3,1 UV-I 579 W/m 15,9 C 24,4 C 4,8 km/h (1 Bft) 100,00 %
15.08.2016 15:50 24,3 C 59 % 1017,4 hPa 0,0 l/m 1,6 km/h (1 Bft) O 92 2 min 0,000 mm 3,1 UV-I 611 W/m 15,8 C 24,3 C 4,8 km/h (1 Bft) 96,23 %
15.08.2016 15:52 24,4 C 61 % 1017,4 hPa 0,0 l/m 6,4 km/h (2 Bft) S-SO 167 2 min 0,000 mm 3,1 UV-I 611 W/m 16,4 C 24,4 C 12,9 km/h (3 Bft) 97,56 %
15.08.2016 15:54 24,3 C 59 % 1017,4 hPa 0,0 l/m 2,7 km/h (1 Bft) SO 131 2 min 0,000 mm 3,1 UV-I 612 W/m 15,8 C 24,3 C 4,8 km/h (1 Bft) 98,21 %
15.08.2016 15:56 24,3 C 59 % 1017,3 hPa 0,0 l/m 5,2 km/h (1 Bft) S 182 2 min 0,000 mm 2,9 UV-I 591 W/m 15,8 C 24,3 C 11,3 km/h (2 Bft) 98,00 %
15.08.2016 15:58 24,4 C 60 % 1017,3 hPa 0,0 l/m 2,5 km/h (1 Bft) S-SO 157 2 min 0,000 mm 2,9 UV-I 588 W/m 16,1 C 24,4 C 6,4 km/h (2 Bft) 94,74 %
15.08.2016 16:00 24,5 C 60 % 1017,4 hPa 0,0 l/m 3,7 km/h (1 Bft) SO 126 2 min 0,330 mm 2,9 UV-I 585 W/m 16,2 C 24,5 C 9,7 km/h (2 Bft) 98,11 %
15.08.2016 16:02 24,6 C 59 % 1017,4 hPa 0,0 l/m 7,7 km/h (2 Bft) SO 126 2 min 0,000 mm 2,8 UV-I 572 W/m 16,0 C 24,3 C 12,9 km/h (3 Bft) 97,56 %
15.08.2016 16:04 24,6 C 59 % 1017,3 hPa 0,0 l/m 5,7 km/h (1 Bft) N 10 2 min 0,000 mm 2,8 UV-I 577 W/m 16,0 C 24,6 C 12,9 km/h (3 Bft) 95,74 %
15.08.2016 16:06 24,6 C 59 % 1017,3 hPa 0,0 l/m 1,4 km/h (1 Bft) N-NO 30 2 min 0,000 mm 2,8 UV-I 555 W/m 16,0 C 24,6 C 4,8 km/h (1 Bft) 96,23 %
15.08.2016 16:08 24,6 C 60 % 1017,3 hPa 0,0 l/m 2,4 km/h (1 Bft) S-SO 151 2 min 0,000 mm 2,8 UV-I 587 W/m 16,3 C 24,6 C 4,8 km/h (1 Bft) 100,00 %
15.08.2016 16:10 24,4 C 60 % 1017,3 hPa 0,0 l/m 3,0 km/h (1 Bft) S-SO 165 2 min 0,000 mm 2,8 UV-I 586 W/m 16,1 C 24,4 C 4,8 km/h (1 Bft) 100,00 %
15.08.2016 16:12 24,4 C 59 % 1017,3 hPa 0,0 l/m 1,5 km/h (1 Bft) O-SO 109 2 min 0,000 mm 2,7 UV-I 581 W/m 15,9 C 24,4 C 6,4 km/h (2 Bft) 100,00 %
15.08.2016 16:14 24,6 C 60 % 1017,3 hPa 0,0 l/m 5,9 km/h (2 Bft) NO 45 2 min 0,000 mm 2,7 UV-I 572 W/m 16,3 C 24,6 C 9,7 km/h (2 Bft) 94,74 %
15.08.2016 16:16 24,7 C 58 % 1017,3 hPa 0,0 l/m 3,7 km/h (1 Bft) O-NO 69 2 min 0,000 mm 2,6 UV-I 566 W/m 15,9 C 24,7 C 6,4 km/h (2 Bft) 98,00 %
15.08.2016 16:18 24,7 C 58 % 1017,3 hPa 0,0 l/m 1,3 km/h (1 Bft) NO 47 2 min 0,000 mm 2,6 UV-I 568 W/m 15,9 C 24,7 C 3,2 km/h (1 Bft) 100,00 %
15.08.2016 16:20 24,6 C 58 % 1017,3 hPa 0,0 l/m 2,6 km/h (1 Bft) NO 46 2 min 0,000 mm 2,5 UV-I 565 W/m 15,8 C 24,6 C 4,8 km/h (1 Bft) 98,00 %
15.08.2016 16:22 24,7 C 60 % 1017,3 hPa 0,0 l/m 2,1 km/h (1 Bft) S-SO 159 2 min 0,000 mm 2,5 UV-I 552 W/m 16,4 C 24,7 C 6,4 km/h (2 Bft) 100,00 %
15.08.2016 16:24 24,8 C 59 % 1017,3 hPa 0,0 l/m 5,6 km/h (1 Bft) O-SO 117 2 min 0,000 mm 2,5 UV-I 556 W/m 16,2 C 24,8 C 11,3 km/h (2 Bft) 100,00 %
15.08.2016 16:26 24,8 C 58 % 1017,3 hPa 0,0 l/m 6,5 km/h (2 Bft) S-SO 161 2 min 0,000 mm 2,4 UV-I 551 W/m 16,0 C 24,8 C 12,9 km/h (3 Bft) 100,00 %
15.08.2016 16:28 24,8 C 59 % 1017,3 hPa 0,0 l/m 4,2 km/h (1 Bft) S 183 2 min 0,000 mm 2,4 UV-I 555 W/m 16,2 C 24,8 C 8,0 km/h (2 Bft) 100,00 %
15.08.2016 16:30 24,7 C 57 % 1017,3 hPa 0,0 l/m 5,9 km/h (2 Bft) S-SO 161 2 min 0,000 mm 1,5 UV-I 538 W/m 15,6 C 24,7 C 11,3 km/h (2 Bft) 100,00 %
15.08.2016 16:32 24,7 C 62 % 1017,3 hPa 0,0 l/m 1,0 km/h (0 Bft) S-SO 161 2 min 0,000 mm 2,2 UV-I 538 W/m 16,9 C 24,7 C 3,2 km/h (1 Bft) 100,00 %
15.08.2016 16:34 24,8 C 60 % 1017,3 hPa 0,0 l/m 4,1 km/h (1 Bft) O 82 2 min 0,000 mm 2,2 UV-I 533 W/m 16,5 C 24,8 C 6,4 km/h (2 Bft) 100,00 %
15.08.2016 16:36 25,0 C 61 % 1017,3 hPa 0,0 l/m 3,0 km/h (1 Bft) NO 52 2 min 0,000 mm 2,2 UV-I 540 W/m 16,9 C 25,0 C 6,4 km/h (2 Bft) 100,00 %
15.08.2016 16:38 25,0 C 60 % 1017,3 hPa 0,0 l/m 2,4 km/h (1 Bft) O-NO 76 2 min 0,000 mm 2,1 UV-I 516 W/m 16,7 C 25,0 C 4,8 km/h (1 Bft) 100,00 %
15.08.2016 16:40 25,0 C 59 % 1017,3 hPa 0,0 l/m 4,0 km/h (1 Bft) NO 46 2 min 0,000 mm 2,1 UV-I 514 W/m 16,4 C 25,0 C 8,0 km/h (2 Bft) 100,00 %
15.08.2016 16:42 25,1 C 58 % 1017,3 hPa 0,0 l/m 3,8 km/h (1 Bft) O-NO 70 2 min 0,000 mm 2,0 UV-I 513 W/m 16,2 C 25,1 C 6,4 km/h (2 Bft) 100,00 %
15.08.2016 16:44 24,9 C 58 % 1017,3 hPa 0,0 l/m 1,9 km/h (1 Bft) SO 137 2 min 0,000 mm 2,0 UV-I 512 W/m 16,1 C 24,9 C 4,8 km/h (1 Bft) 100,00 %
15.08.2016 16:46 24,8 C 58 % 1017,3 hPa 0,0 l/m 1,9 km/h (1 Bft) S-SO 153 2 min 0,000 mm 1,7 UV-I 479 W/m 16,0 C 24,8 C 3,2 km/h (1 Bft) 100,00 %
15.08.2016 16:48 24,6 C 59 % 1017,3 hPa 0,0 l/m 1,6 km/h (1 Bft) S-SO 163 0 min 0,000 mm 1,3 UV-I 283 W/m 16,0 C 24,6 C 3,2 km/h (1 Bft) 100,00 %
15.08.2016 16:50 24,5 C 59 % 1017,3 hPa 0,0 l/m 5,5 km/h (1 Bft) O 86 0 min 0,000 mm 1,5 UV-I 244 W/m 15,9 C 24,5 C 11,3 km/h (2 Bft) 97,37 %
15.08.2016 16:52 24,4 C 59 % 1017,3 hPa 0,0 l/m 6,3 km/h (2 Bft) O-NO 64 2 min 0,000 mm 1,4 UV-I 309 W/m 15,9 C 24,4 C 14,5 km/h (3 Bft) 100,00 %
15.08.2016 16:54 24,3 C 59 % 1017,3 hPa 0,0 l/m 2,7 km/h (1 Bft) S-SO 147 0 min 0,000 mm 1,3 UV-I 217 W/m 15,8 C 24,3 C 4,8 km/h (1 Bft) 100,00 %
15.08.2016 16:56 24,3 C 61 % 1017,3 hPa 0,0 l/m 5,3 km/h (1 Bft) S 189 0 min 0,000 mm 1,2 UV-I 193 W/m 16,3 C 24,3 C 12,9 km/h (3 Bft) 100,00 %
15.08.2016 16:58 24,2 C 62 % 1017,3 hPa 0,0 l/m 6,6 km/h (2 Bft) S 186 0 min 0,000 mm 1,1 UV-I 179 W/m 16,4 C 24,2 C 11,3 km/h (2 Bft) 100,00 %
15.08.2016 17:00 24,0 C 62 % 1017,2 hPa 0,0 l/m 4,1 km/h (1 Bft) S 185 0 min 0,305 mm 1,1 UV-I 184 W/m 16,3 C 24,0 C 8,0 km/h (2 Bft) 98,44 %
15.08.2016 17:02 23,9 C 62 % 1017,2 hPa 0,0 l/m 4,9 km/h (1 Bft) SW 214 0 min 0,000 mm 1,0 UV-I 181 W/m 16,2 C 23,9 C 6,4 km/h (2 Bft) 100,00 %
15.08.2016 17:04 23,8 C 62 % 1017,2 hPa 0,0 l/m 3,9 km/h (1 Bft) S 191 0 min 0,000 mm 0,9 UV-I 171 W/m 16,1 C 23,8 C 8,0 km/h (2 Bft) 100,00 %
15.08.2016 17:06 23,8 C 61 % 1017,2 hPa 0,0 l/m 5,2 km/h (1 Bft) SW 220 0 min 0,000 mm 0,9 UV-I 160 W/m 15,8 C 23,8 C 8,0 km/h (2 Bft) 100,00 %
15.08.2016 17:08 23,7 C 61 % 1017,1 hPa 0,0 l/m 3,4 km/h (1 Bft) SW 219 0 min 0,000 mm 0,8 UV-I 155 W/m 15,7 C 23,7 C 6,4 km/h (2 Bft) 100,00 %
15.08.2016 17:10 23,7 C 63 % 1017,2 hPa 0,0 l/m 4,9 km/h (1 Bft) S 183 0 min 0,000 mm 0,8 UV-I 166 W/m 16,2 C 23,7 C 6,4 km/h (2 Bft) 100,00 %
15.08.2016 17:12 23,8 C 64 % 1017,2 hPa 0,0 l/m 6,3 km/h (2 Bft) S-SO 161 0 min 0,000 mm 0,7 UV-I 153 W/m 16,6 C 23,8 C 9,7 km/h (2 Bft) 100,00 %
15.08.2016 17:14 23,8 C 62 % 1017,2 hPa 0,0 l/m 4,2 km/h (1 Bft) S-SO 166 0 min 0,000 mm 0,7 UV-I 152 W/m 16,1 C 23,8 C 8,0 km/h (2 Bft) 100,00 %
15.08.2016 17:16 23,8 C 62 % 1017,2 hPa 0,0 l/m 2,6 km/h (1 Bft) S-SO 166 0 min 0,000 mm 0,7 UV-I 148 W/m 16,1 C 23,8 C 6,4 km/h (2 Bft) 100,00 %
15.08.2016 17:18 23,8 C 62 % 1017,2 hPa 0,0 l/m 2,6 km/h (1 Bft) S 173 0 min 0,000 mm 0,7 UV-I 148 W/m 16,1 C 23,8 C 8,0 km/h (2 Bft) 100,00 %
15.08.2016 17:20 23,8 C 63 % 1017,2 hPa 0,0 l/m 4,1 km/h (1 Bft) S 173 0 min 0,000 mm 0,7 UV-I 165 W/m 16,3 C 23,8 C 4,8 km/h (1 Bft) 100,00 %
15.08.2016 17:22 23,8 C 62 % 1017,2 hPa 0,0 l/m 1,1 km/h (1 Bft) S 173 0 min 0,000 mm 0,7 UV-I 158 W/m 16,1 C 23,8 C 4,8 km/h (1 Bft) 98,00 %
15.08.2016 17:24 23,8 C 63 % 1017,1 hPa 0,0 l/m 1,8 km/h (1 Bft) S 173 0 min 0,000 mm 0,7 UV-I 161 W/m 16,3 C 23,8 C 3,2 km/h (1 Bft) 97,87 %
15.08.2016 17:26 23,8 C 62 % 1017,1 hPa 0,0 l/m 3,5 km/h (1 Bft) S 178 0 min 0,000 mm 0,8 UV-I 167 W/m 16,1 C 23,8 C 6,4 km/h (2 Bft) 100,00 %
15.08.2016 17:28 23,8 C 64 % 1017,1 hPa 0,0 l/m 3,0 km/h (1 Bft) S-SO 157 0 min 0,000 mm 0,8 UV-I 173 W/m 16,6 C 23,8 C 8,0 km/h (2 Bft) 100,00 %
15.08.2016 17:30 23,9 C 63 % 1017,1 hPa 0,0 l/m 2,4 km/h (1 Bft) SO 144 0 min 0,000 mm 0,8 UV-I 174 W/m 16,4 C 23,9 C 4,8 km/h (1 Bft) 97,56 %
15.08.2016 17:32 23,9 C 64 % 1017,1 hPa 0,0 l/m 2,9 km/h (1 Bft) S-SO 157 0 min 0,000 mm 0,8 UV-I 171 W/m 16,7 C 23,9 C 4,8 km/h (1 Bft) 92,00 %
15.08.2016 17:34 23,9 C 63 % 1017,1 hPa 0,0 l/m 4,2 km/h (1 Bft) S-SO 161 0 min 0,000 mm 0,8 UV-I 173 W/m 16,4 C 23,9 C 8,0 km/h (2 Bft) 98,00 %
15.08.2016 17:36 24,0 C 63 % 1017,1 hPa 0,0 l/m 2,6 km/h (1 Bft) S-SO 156 0 min 0,000 mm 0,8 UV-I 165 W/m 16,5 C 24,0 C 6,4 km/h (2 Bft) 97,87 %
15.08.2016 17:38 23,9 C 62 % 1017,0 hPa 0,0 l/m 1,8 km/h (1 Bft) S-SO 156 0 min 0,000 mm 0,8 UV-I 174 W/m 16,2 C 23,9 C 4,8 km/h (1 Bft) 97,14 %
15.08.2016 17:40 23,9 C 62 % 1017,0 hPa 0,0 l/m 1,8 km/h (1 Bft) S-SO 156 0 min 0,000 mm 0,9 UV-I 168 W/m 16,2 C 23,9 C 4,8 km/h (1 Bft) 98,00 %
15.08.2016 17:42 24,0 C 63 % 1017,1 hPa 0,0 l/m 3,0 km/h (1 Bft) SO 140 0 min 0,000 mm 0,9 UV-I 167 W/m 16,5 C 24,0 C 4,8 km/h (1 Bft) 97,87 %
15.08.2016 17:44 24,2 C 67 % 1017,0 hPa 0,0 l/m 3,1 km/h (1 Bft) SO 140 2 min 0,000 mm 0,9 UV-I 337 W/m 17,7 C 24,2 C 4,8 km/h (1 Bft) 98,00 %
15.08.2016 17:46 24,3 C 64 % 1017,1 hPa 0,0 l/m 4,0 km/h (1 Bft) SO 131 2 min 0,000 mm 0,9 UV-I 400 W/m 17,0 C 24,3 C 8,0 km/h (2 Bft) 97,62 %
15.08.2016 17:48 24,4 C 62 % 1017,0 hPa 0,0 l/m 4,5 km/h (1 Bft) O-SO 122 2 min 0,000 mm 0,9 UV-I 394 W/m 16,6 C 24,4 C 6,4 km/h (2 Bft) 97,87 %
15.08.2016 17:50 24,4 C 62 % 1017,0 hPa 0,0 l/m 3,4 km/h (1 Bft) S 175 2 min 0,000 mm 0,9 UV-I 367 W/m 16,6 C 24,4 C 6,4 km/h (2 Bft) 96,23 %
15.08.2016 17:52 24,4 C 62 % 1017,0 hPa 0,0 l/m 2,8 km/h (1 Bft) S-SO 148 2 min 0,000 mm 0,8 UV-I 350 W/m 16,6 C 24,4 C 6,4 km/h (2 Bft) 97,87 %
15.08.2016 17:54 24,4 C 61 % 1017,0 hPa 0,0 l/m 3,8 km/h (1 Bft) S-SO 157 2 min 0,000 mm 0,8 UV-I 406 W/m 16,4 C 24,4 C 6,4 km/h (2 Bft) 97,87 %
15.08.2016 17:56 24,5 C 63 % 1017,0 hPa 0,0 l/m 3,1 km/h (1 Bft) O 101 2 min 0,000 mm 0,7 UV-I 399 W/m 17,0 C 24,5 C 4,8 km/h (1 Bft) 97,37 %
15.08.2016 17:58 24,6 C 62 % 1017,0 hPa 0,0 l/m 4,9 km/h (1 Bft) O-SO 107 2 min 0,000 mm 0,6 UV-I 311 W/m 16,8 C 24,6 C 6,4 km/h (2 Bft) 98,21 %
15.08.2016 18:00 24,6 C 60 % 1016,9 hPa 0,0 l/m 6,0 km/h (2 Bft) O-NO 67 2 min 0,000 mm 0,5 UV-I 225 W/m 16,3 C 24,6 C 17,7 km/h (3 Bft) 98,00 %
15.08.2016 18:02 24,4 C 62 % 1016,9 hPa 0,0 l/m 11,9 km/h (2 Bft) O 81 2 min 0,152 mm 0,5 UV-I 231 W/m 16,6 C 23,1 C 17,7 km/h (3 Bft) 97,73 %
15.08.2016 18:04 24,2 C 63 % 1016,8 hPa 0,0 l/m 11,3 km/h (2 Bft) O-SO 103 2 min 0,000 mm 0,1 UV-I 261 W/m 16,7 C 23,0 C 16,1 km/h (3 Bft) 95,12 %
15.08.2016 18:06 24,1 C 63 % 1016,8 hPa 0,0 l/m 11,6 km/h (2 Bft) O-NO 75 2 min 0,000 mm 0,0 UV-I 267 W/m 16,6 C 22,8 C 16,1 km/h (3 Bft) 98,00 %
15.08.2016 18:08 24,0 C 65 % 1016,8 hPa 0,0 l/m 11,5 km/h (2 Bft) O-NO 65 2 min 0,000 mm 0,0 UV-I 238 W/m 17,0 C 22,7 C 17,7 km/h (3 Bft) 100,00 %
15.08.2016 18:10 23,9 C 64 % 1016,8 hPa 0,0 l/m 15,0 km/h (3 Bft) O-NO 76 0 min 0,000 mm 0,0 UV-I 176 W/m 16,7 C 22,0 C 19,3 km/h (3 Bft) 97,73 %
15.08.2016 18:12 23,8 C 65 % 1016,8 hPa 0,0 l/m 11,9 km/h (2 Bft) O-NO 77 0 min 0,000 mm 0,0 UV-I 117 W/m 16,8 C 22,4 C 17,7 km/h (3 Bft) 97,87 %
15.08.2016 18:14 23,6 C 65 % 1016,8 hPa 0,0 l/m 16,2 km/h (3 Bft) O-NO 78 0 min 0,000 mm 0,0 UV-I 104 W/m 16,6 C 21,4 C 20,9 km/h (4 Bft) 100,00 %
15.08.2016 18:16 23,5 C 66 % 1016,8 hPa 0,0 l/m 13,7 km/h (3 Bft) O 98 0 min 0,000 mm 0,0 UV-I 91 W/m 16,8 C 21,7 C 17,7 km/h (3 Bft) 100,00 %
15.08.2016 18:18 23,4 C 66 % 1016,9 hPa 0,0 l/m 13,4 km/h (3 Bft) O-NO 75 0 min 0,000 mm 0,0 UV-I 86 W/m 16,7 C 21,7 C 17,7 km/h (3 Bft) 100,00 %
15.08.2016 18:20 23,3 C 66 % 1016,9 hPa 0,0 l/m 14,6 km/h (3 Bft) O-NO 74 0 min 0,000 mm 0,0 UV-I 81 W/m 16,6 C 21,3 C 19,3 km/h (3 Bft) 100,00 %
15.08.2016 18:22 23,2 C 66 % 1016,9 hPa 0,0 l/m 13,2 km/h (3 Bft) O 88 0 min 0,000 mm 0,0 UV-I 78 W/m 16,5 C 21,5 C 22,5 km/h (4 Bft) 100,00 %
15.08.2016 18:24 23,1 C 67 % 1016,9 hPa 0,0 l/m 9,2 km/h (2 Bft) O-SO 111 0 min 0,000 mm 0,0 UV-I 81 W/m 16,6 C 22,3 C 14,5 km/h (3 Bft) 100,00 %
15.08.2016 18:26 23,0 C 67 % 1016,9 hPa 0,0 l/m 10,6 km/h (2 Bft) O 82 0 min 0,000 mm 0,0 UV-I 85 W/m 16,5 C 21,8 C 14,5 km/h (3 Bft) 100,00 %
15.08.2016 18:28 22,9 C 68 % 1016,9 hPa 0,0 l/m 10,5 km/h (2 Bft) O-SO 115 0 min 0,000 mm 0,0 UV-I 91 W/m 16,7 C 21,7 C 16,1 km/h (3 Bft) 100,00 %
15.08.2016 18:30 22,9 C 68 % 1016,9 hPa 0,0 l/m 7,8 km/h (2 Bft) O-SO 105 0 min 0,000 mm 0,0 UV-I 90 W/m 16,7 C 22,5 C 12,9 km/h (3 Bft) 97,56 %
15.08.2016 18:32 22,8 C 69 % 1016,9 hPa 0,0 l/m 6,0 km/h (2 Bft) O 85 0 min 0,000 mm 0,0 UV-I 86 W/m 16,8 C 22,8 C 9,7 km/h (2 Bft) 100,00 %
15.08.2016 18:34 22,8 C 68 % 1017,0 hPa 0,0 l/m 7,9 km/h (2 Bft) O 82 0 min 0,000 mm 0,0 UV-I 82 W/m 16,6 C 22,3 C 14,5 km/h (3 Bft) 97,56 %
15.08.2016 18:36 22,8 C 69 % 1017,0 hPa 0,0 l/m 10,3 km/h (2 Bft) O 80 0 min 0,000 mm 0,0 UV-I 84 W/m 16,8 C 21,7 C 14,5 km/h (3 Bft) 100,00 %
15.08.2016 18:38 22,8 C 69 % 1017,0 hPa 0,0 l/m 11,1 km/h (2 Bft) O-NO 63 0 min 0,000 mm 0,0 UV-I 85 W/m 16,8 C 21,5 C 16,1 km/h (3 Bft) 100,00 %
15.08.2016 18:40 22,8 C 69 % 1017,0 hPa 0,0 l/m 12,8 km/h (3 Bft) O-NO 72 0 min 0,000 mm 0,0 UV-I 86 W/m 16,8 C 21,1 C 17,7 km/h (3 Bft) 97,87 %
15.08.2016 18:42 22,8 C 69 % 1017,0 hPa 0,0 l/m 15,5 km/h (3 Bft) O 83 0 min 0,000 mm 0,0 UV-I 89 W/m 16,8 C 20,6 C 19,3 km/h (3 Bft) 100,00 %
15.08.2016 18:44 22,8 C 69 % 1017,1 hPa 0,0 l/m 8,3 km/h (2 Bft) NO 40 0 min 0,000 mm 0,0 UV-I 86 W/m 16,8 C 22,2 C 14,5 km/h (3 Bft) 98,11 %
15.08.2016 18:46 22,7 C 70 % 1017,0 hPa 0,0 l/m 10,1 km/h (2 Bft) O-NO 71 0 min 0,000 mm 0,0 UV-I 93 W/m 16,9 C 21,6 C 16,1 km/h (3 Bft) 97,56 %
15.08.2016 18:48 22,7 C 70 % 1017,0 hPa 0,0 l/m 11,6 km/h (2 Bft) O 85 0 min 0,000 mm 0,0 UV-I 102 W/m 16,9 C 21,2 C 17,7 km/h (3 Bft) 98,00 %
15.08.2016 18:50 22,6 C 69 % 1017,0 hPa 0,0 l/m 13,5 km/h (3 Bft) NO 52 0 min 0,000 mm 0,0 UV-I 101 W/m 16,6 C 20,7 C 19,3 km/h (3 Bft) 100,00 %
15.08.2016 18:52 22,6 C 69 % 1017,0 hPa 0,0 l/m 11,5 km/h (2 Bft) O-NO 66 0 min 0,000 mm 0,0 UV-I 93 W/m 16,6 C 21,1 C 19,3 km/h (3 Bft) 100,00 %
15.08.2016 18:54 22,5 C 69 % 1017,0 hPa 0,0 l/m 13,0 km/h (3 Bft) O 80 0 min 0,000 mm 0,0 UV-I 81 W/m 16,5 C 20,7 C 19,3 km/h (3 Bft) 100,00 %
15.08.2016 18:56 22,4 C 69 % 1017,0 hPa 0,0 l/m 13,7 km/h (3 Bft) O-NO 64 0 min 0,000 mm 0,0 UV-I 73 W/m 16,4 C 20,4 C 20,9 km/h (4 Bft) 100,00 %
15.08.2016 18:58 22,4 C 69 % 1017,0 hPa 0,0 l/m 12,8 km/h (3 Bft) O-SO 113 0 min 0,000 mm 0,0 UV-I 55 W/m 16,4 C 20,6 C 19,3 km/h (3 Bft) 100,00 %
15.08.2016 19:00 22,3 C 69 % 1017,0 hPa 0,0 l/m 14,2 km/h (3 Bft) O-NO 62 0 min 0,127 mm 0,0 UV-I 44 W/m 16,3 C 20,2 C 17,7 km/h (3 Bft) 100,00 %
15.08.2016 19:02 22,2 C 69 % 1016,9 hPa 0,0 l/m 10,3 km/h (2 Bft) O-NO 65 0 min 0,000 mm 0,0 UV-I 40 W/m 16,2 C 21,0 C 14,5 km/h (3 Bft) 100,00 %
15.08.2016 19:04 22,2 C 69 % 1016,9 hPa 0,0 l/m 10,7 km/h (2 Bft) O 90 0 min 0,000 mm 0,0 UV-I 40 W/m 16,2 C 20,9 C 14,5 km/h (3 Bft) 100,00 %
15.08.2016 19:06 22,1 C 70 % 1016,9 hPa 0,0 l/m 8,4 km/h (2 Bft) O 92 0 min 0,000 mm 0,0 UV-I 47 W/m 16,4 C 21,4 C 16,1 km/h (3 Bft) 100,00 %
15.08.2016 19:08 22,1 C 69 % 1016,9 hPa 0,0 l/m 6,2 km/h (2 Bft) O 84 0 min 0,000 mm 0,0 UV-I 51 W/m 16,1 C 22,1 C 12,9 km/h (3 Bft) 98,11 %
15.08.2016 19:10 22,1 C 70 % 1016,9 hPa 0,0 l/m 7,8 km/h (2 Bft) O-NO 68 0 min 0,000 mm 0,0 UV-I 45 W/m 16,4 C 21,6 C 12,9 km/h (3 Bft) 100,00 %
15.08.2016 19:12 22,0 C 70 % 1016,9 hPa 0,0 l/m 7,7 km/h (2 Bft) O 86 0 min 0,000 mm 0,0 UV-I 42 W/m 16,3 C 21,6 C 12,9 km/h (3 Bft) 98,00 %
15.08.2016 19:14 21,9 C 71 % 1016,9 hPa 0,0 l/m 7,1 km/h (2 Bft) O-NO 66 0 min 0,000 mm 0,0 UV-I 46 W/m 16,4 C 21,7 C 14,5 km/h (3 Bft) 97,56 %
15.08.2016 19:16 21,9 C 70 % 1016,8 hPa 0,0 l/m 10,1 km/h (2 Bft) O-NO 74 0 min 0,000 mm 0,0 UV-I 79 W/m 16,2 C 20,7 C 14,5 km/h (3 Bft) 100,00 %
15.08.2016 19:18 22,0 C 70 % 1016,8 hPa 0,0 l/m 10,5 km/h (2 Bft) O 84 0 min 0,000 mm 0,0 UV-I 71 W/m 16,3 C 20,7 C 14,5 km/h (3 Bft) 100,00 %
15.08.2016 19:20 22,1 C 70 % 1016,8 hPa 0,0 l/m 11,3 km/h (2 Bft) O 88 0 min 0,000 mm 0,0 UV-I 52 W/m 16,4 C 20,6 C 14,5 km/h (3 Bft) 97,14 %
15.08.2016 19:22 22,1 C 70 % 1016,8 hPa 0,0 l/m 8,5 km/h (2 Bft) NO 55 0 min 0,000 mm 0,0 UV-I 42 W/m 16,4 C 21,4 C 14,5 km/h (3 Bft) 100,00 %
15.08.2016 19:24 22,0 C 70 % 1016,8 hPa 0,0 l/m 9,4 km/h (2 Bft) O-NO 68 0 min 0,000 mm 0,0 UV-I 39 W/m 16,3 C 21,0 C 14,5 km/h (3 Bft) 97,14 %
15.08.2016 19:26 21,9 C 70 % 1016,9 hPa 0,0 l/m 7,8 km/h (2 Bft) O-NO 63 0 min 0,000 mm 0,0 UV-I 39 W/m 16,2 C 21,4 C 14,5 km/h (3 Bft) 98,31 %
15.08.2016 19:28 21,9 C 70 % 1016,8 hPa 0,0 l/m 7,6 km/h (2 Bft) O-NO 63 0 min 0,000 mm 0,0 UV-I 39 W/m 16,2 C 21,5 C 11,3 km/h (2 Bft) 92,31 %
15.08.2016 19:30 21,8 C 71 % 1016,9 hPa 0,0 l/m 6,5 km/h (2 Bft) NO 55 0 min 0,000 mm 0,0 UV-I 36 W/m 16,3 C 21,8 C 8,0 km/h (2 Bft) 98,11 %
15.08.2016 19:32 21,7 C 72 % 1016,9 hPa 0,0 l/m 7,2 km/h (2 Bft) O-NO 59 0 min 0,000 mm 0,0 UV-I 35 W/m 16,4 C 21,4 C 9,7 km/h (2 Bft) 96,61 %
15.08.2016 19:34 21,6 C 72 % 1016,9 hPa 0,0 l/m 7,2 km/h (2 Bft) O-NO 60 0 min 0,000 mm 0,0 UV-I 35 W/m 16,3 C 21,3 C 9,7 km/h (2 Bft) 95,74 %
15.08.2016 19:36 21,6 C 72 % 1016,9 hPa 0,0 l/m 7,4 km/h (2 Bft) O-NO 59 0 min 0,000 mm 0,0 UV-I 33 W/m 16,3 C 21,2 C 11,3 km/h (2 Bft) 97,87 %
15.08.2016 19:38 21,5 C 73 % 1016,9 hPa 0,0 l/m 6,7 km/h (2 Bft) O-NO 63 0 min 0,000 mm 0,0 UV-I 32 W/m 16,4 C 21,4 C 8,0 km/h (2 Bft) 97,22 %
15.08.2016 19:40 21,4 C 73 % 1016,9 hPa 0,0 l/m 5,7 km/h (1 Bft) O-NO 63 0 min 0,000 mm 0,0 UV-I 30 W/m 16,4 C 21,4 C 8,0 km/h (2 Bft) 96,00 %
15.08.2016 19:42 21,3 C 74 % 1016,9 hPa 0,0 l/m 5,6 km/h (1 Bft) NO 49 0 min 0,000 mm 0,0 UV-I 27 W/m 16,5 C 21,3 C 9,7 km/h (2 Bft) 98,08 %
15.08.2016 19:44 21,3 C 74 % 1016,9 hPa 0,0 l/m 5,9 km/h (2 Bft) NO 54 0 min 0,000 mm 0,0 UV-I 25 W/m 16,5 C 21,3 C 8,0 km/h (2 Bft) 97,44 %
15.08.2016 19:46 21,2 C 74 % 1016,9 hPa 0,0 l/m 6,5 km/h (2 Bft) O-NO 62 0 min 0,000 mm 0,0 UV-I 24 W/m 16,4 C 21,2 C 9,7 km/h (2 Bft) 98,11 %
15.08.2016 19:48 21,2 C 74 % 1016,9 hPa 0,0 l/m 5,9 km/h (2 Bft) O-NO 74 0 min 0,000 mm 0,0 UV-I 22 W/m 16,4 C 21,2 C 8,0 km/h (2 Bft) 97,87 %
15.08.2016 19:50 21,2 C 74 % 1016,8 hPa 0,0 l/m 6,0 km/h (2 Bft) O-NO 58 0 min 0,000 mm 0,0 UV-I 21 W/m 16,4 C 21,2 C 8,0 km/h (2 Bft) 95,74 %
15.08.2016 19:52 21,1 C 74 % 1016,9 hPa 0,0 l/m 6,0 km/h (2 Bft) O-NO 72 0 min 0,000 mm 0,0 UV-I 21 W/m 16,3 C 21,1 C 8,0 km/h (2 Bft) 98,00 %
15.08.2016 19:54 21,1 C 74 % 1016,9 hPa 0,0 l/m 7,3 km/h (2 Bft) O-NO 78 0 min 0,000 mm 0,0 UV-I 19 W/m 16,3 C 20,8 C 9,7 km/h (2 Bft) 94,74 %
15.08.2016 19:56 21,1 C 74 % 1016,9 hPa 0,0 l/m 7,5 km/h (2 Bft) O-NO 57 0 min 0,000 mm 0,0 UV-I 18 W/m 16,3 C 20,7 C 12,9 km/h (3 Bft) 98,21 %
15.08.2016 19:58 21,0 C 75 % 1016,9 hPa 0,0 l/m 6,6 km/h (2 Bft) O-NO 59 0 min 0,000 mm 0,0 UV-I 17 W/m 16,4 C 20,9 C 9,7 km/h (2 Bft) 97,14 %
15.08.2016 20:00 20,9 C 75 % 1016,9 hPa 0,0 l/m 5,7 km/h (1 Bft) O-NO 59 0 min 0,051 mm 0,0 UV-I 16 W/m 16,3 C 20,9 C 9,7 km/h (2 Bft) 100,00 %
15.08.2016 20:02 20,8 C 75 % 1016,9 hPa 0,0 l/m 6,9 km/h (2 Bft) O 83 2 min 0,000 mm 0,0 UV-I 14 W/m 16,2 C 20,6 C 9,7 km/h (2 Bft) 98,00 %
15.08.2016 20:04 20,8 C 75 % 1016,9 hPa 0,0 l/m 6,6 km/h (2 Bft) O-NO 69 2 min 0,000 mm 0,0 UV-I 12 W/m 16,2 C 20,7 C 9,7 km/h (2 Bft) 97,87 %
15.08.2016 20:06 20,7 C 76 % 1016,9 hPa 0,0 l/m 5,8 km/h (2 Bft) O-NO 75 0 min 0,000 mm 0,0 UV-I 11 W/m 16,3 C 20,7 C 8,0 km/h (2 Bft) 100,00 %
15.08.2016 20:08 20,7 C 76 % 1016,9 hPa 0,0 l/m 6,3 km/h (2 Bft) O-NO 76 0 min 0,000 mm 0,0 UV-I 10 W/m 16,3 C 20,7 C 9,7 km/h (2 Bft) 98,00 %
15.08.2016 20:10 20,7 C 76 % 1016,9 hPa 0,0 l/m 6,1 km/h (2 Bft) O-NO 71 0 min 0,000 mm 0,0 UV-I 9 W/m 16,3 C 20,7 C 8,0 km/h (2 Bft) 100,00 %
15.08.2016 20:12 20,6 C 76 % 1016,9 hPa 0,0 l/m 5,8 km/h (2 Bft) NO 55 0 min 0,000 mm 0,0 UV-I 9 W/m 16,2 C 20,6 C 8,0 km/h (2 Bft) 98,00 %
15.08.2016 20:14 20,6 C 76 % 1017,0 hPa 0,0 l/m 6,5 km/h (2 Bft) O-NO 59 0 min 0,000 mm 0,0 UV-I 9 W/m 16,2 C 20,6 C 8,0 km/h (2 Bft) 100,00 %
15.08.2016 20:16 20,5 C 76 % 1017,0 hPa 0,0 l/m 6,7 km/h (2 Bft) NO 51 0 min 0,000 mm 0,0 UV-I 7 W/m 16,1 C 20,4 C 11,3 km/h (2 Bft) 98,00 %
15.08.2016 20:18 20,4 C 76 % 1017,0 hPa 0,0 l/m 7,1 km/h (2 Bft) O-NO 73 0 min 0,000 mm 0,0 UV-I 6 W/m 16,0 C 20,1 C 9,7 km/h (2 Bft) 100,00 %
15.08.2016 20:20 20,4 C 77 % 1017,0 hPa 0,0 l/m 5,7 km/h (1 Bft) O-NO 59 0 min 0,000 mm 0,0 UV-I 5 W/m 16,2 C 20,4 C 8,0 km/h (2 Bft) 100,00 %
15.08.2016 20:22 20,3 C 77 % 1016,9 hPa 0,0 l/m 6,0 km/h (2 Bft) NO 51 0 min 0,000 mm 0,0 UV-I 3 W/m 16,1 C 20,3 C 8,0 km/h (2 Bft) 100,00 %
15.08.2016 20:24 20,3 C 77 % 1016,9 hPa 0,0 l/m 4,7 km/h (1 Bft) O-NO 71 0 min 0,000 mm 0,0 UV-I 0 W/m 16,1 C 20,3 C 6,4 km/h (2 Bft) 96,15 %
15.08.2016 20:26 20,3 C 78 % 1016,8 hPa 0,0 l/m 3,8 km/h (1 Bft) O 83 0 min 0,000 mm 0,0 UV-I 0 W/m 16,3 C 20,3 C 6,4 km/h (2 Bft) 100,00 %
15.08.2016 20:28 20,2 C 78 % 1016,8 hPa 0,0 l/m 3,4 km/h (1 Bft) O 89 0 min 0,000 mm 0,0 UV-I 0 W/m 16,2 C 20,2 C 4,8 km/h (1 Bft) 100,00 %
15.08.2016 20:30 20,2 C 77 % 1016,8 hPa 0,0 l/m 4,5 km/h (1 Bft) O 82 0 min 0,000 mm 0,0 UV-I 0 W/m 16,0 C 20,2 C 6,4 km/h (2 Bft) 97,37 %
15.08.2016 20:32 20,2 C 77 % 1016,8 hPa 0,0 l/m 4,7 km/h (1 Bft) NO 51 0 min 0,000 mm 0,0 UV-I 0 W/m 16,0 C 20,2 C 6,4 km/h (2 Bft) 100,00 %
15.08.2016 20:34 20,2 C 77 % 1016,8 hPa 0,0 l/m 4,9 km/h (1 Bft) O-NO 62 0 min 0,000 mm 0,0 UV-I 0 W/m 16,0 C 20,2 C 8,0 km/h (2 Bft) 100,00 %
15.08.2016 20:36 20,2 C 77 % 1016,9 hPa 0,0 l/m 5,1 km/h (1 Bft) NO 55 0 min 0,000 mm 0,0 UV-I 0 W/m 16,0 C 20,2 C 8,0 km/h (2 Bft) 97,87 %
15.08.2016 20:38 20,2 C 77 % 1016,8 hPa 0,0 l/m 4,8 km/h (1 Bft) O-NO 64 0 min 0,000 mm 0,0 UV-I 0 W/m 16,0 C 20,2 C 8,0 km/h (2 Bft) 100,00 %
15.08.2016 20:40 20,1 C 77 % 1016,9 hPa 0,0 l/m 3,4 km/h (1 Bft) O-NO 69 0 min 0,000 mm 0,0 UV-I 0 W/m 15,9 C 20,1 C 6,4 km/h (2 Bft) 96,00 %
15.08.2016 20:42 19,9 C 78 % 1016,8 hPa 0,0 l/m 2,2 km/h (1 Bft) O-NO 69 0 min 0,000 mm 0,0 UV-I 0 W/m 15,9 C 19,9 C 3,2 km/h (1 Bft) 100,00 %
15.08.2016 20:44 19,8 C 78 % 1016,9 hPa 0,0 l/m 3,5 km/h (1 Bft) O-NO 68 0 min 0,000 mm 0,0 UV-I 0 W/m 15,8 C 19,8 C 4,8 km/h (1 Bft) 100,00 %
15.08.2016 20:46 19,6 C 79 % 1016,9 hPa 0,0 l/m 3,7 km/h (1 Bft) O-NO 69 0 min 0,000 mm 0,0 UV-I 0 W/m 15,9 C 19,6 C 4,8 km/h (1 Bft) 100,00 %
15.08.2016 20:48 19,6 C 79 % 1017,0 hPa 0,0 l/m 3,1 km/h (1 Bft) O-NO 68 0 min 0,000 mm 0,0 UV-I 0 W/m 15,9 C 19,6 C 4,8 km/h (1 Bft) 100,00 %
15.08.2016 20:50 19,5 C 79 % 1017,0 hPa 0,0 l/m 4,1 km/h (1 Bft) NO 52 0 min 0,000 mm 0,0 UV-I 0 W/m 15,8 C 19,5 C 6,4 km/h (2 Bft) 100,00 %
15.08.2016 20:52 19,4 C 80 % 1017,0 hPa 0,0 l/m 4,6 km/h (1 Bft) NO 46 0 min 0,000 mm 0,0 UV-I 0 W/m 15,9 C 19,4 C 6,4 km/h (2 Bft) 97,37 %
15.08.2016 20:54 19,3 C 80 % 1017,0 hPa 0,0 l/m 3,5 km/h (1 Bft) NO 46 0 min 0,000 mm 0,0 UV-I 0 W/m 15,8 C 19,3 C 4,8 km/h (1 Bft) 98,11 %
15.08.2016 20:56 19,2 C 80 % 1017,0 hPa 0,0 l/m 3,8 km/h (1 Bft) NO 44 0 min 0,000 mm 0,0 UV-I 0 W/m 15,7 C 19,2 C 4,8 km/h (1 Bft) 100,00 %
15.08.2016 20:58 19,2 C 81 % 1017,1 hPa 0,0 l/m 1,1 km/h (1 Bft) NO 44 0 min 0,000 mm 0,0 UV-I 0 W/m 15,9 C 19,2 C 3,2 km/h (1 Bft) 100,00 %
15.08.2016 21:00 19,1 C 81 % 1017,1 hPa 0,0 l/m 0,3 km/h (0 Bft) NO 44 0 min 0,000 mm 0,0 UV-I 0 W/m 15,8 C 19,1 C 1,6 km/h (1 Bft) 100,00 %
15.08.2016 21:02 19,0 C 82 % 1017,1 hPa 0,0 l/m 1,4 km/h (1 Bft) NO 44 0 min 0,026 mm 0,0 UV-I 0 W/m 15,9 C 19,0 C 3,2 km/h (1 Bft) 100,00 %
15.08.2016 21:04 18,9 C 82 % 1017,2 hPa 0,0 l/m 2,5 km/h (1 Bft) NO 44 0 min 0,000 mm 0,0 UV-I 0 W/m 15,8 C 18,9 C 3,2 km/h (1 Bft) 100,00 %
15.08.2016 21:06 18,8 C 82 % 1017,2 hPa 0,0 l/m 3,3 km/h (1 Bft) NO 44 0 min 0,000 mm 0,0 UV-I 0 W/m 15,7 C 18,8 C 4,8 km/h (1 Bft) 100,00 %
15.08.2016 21:08 18,8 C 83 % 1017,2 hPa 0,0 l/m 2,3 km/h (1 Bft) NO 44 0 min 0,000 mm 0,0 UV-I 0 W/m 15,8 C 18,8 C 3,2 km/h (1 Bft) 100,00 %
15.08.2016 21:10 18,8 C 83 % 1017,2 hPa 0,0 l/m 2,7 km/h (1 Bft) NO 44 0 min 0,000 mm 0,0 UV-I 0 W/m 15,8 C 18,8 C 3,2 km/h (1 Bft) 100,00 %
15.08.2016 21:12 18,8 C 83 % 1017,2 hPa 0,0 l/m 1,7 km/h (1 Bft) NO 44 0 min 0,000 mm 0,0 UV-I 0 W/m 15,8 C 18,8 C 3,2 km/h (1 Bft) 100,00 %
15.08.2016 21:14 18,8 C 83 % 1017,3 hPa 0,0 l/m 1,1 km/h (1 Bft) NO 44 0 min 0,000 mm 0,0 UV-I 0 W/m 15,8 C 18,8 C 3,2 km/h (1 Bft) 100,00 %
15.08.2016 21:16 18,7 C 83 % 1017,3 hPa 0,0 l/m 0,8 km/h (0 Bft) NO 44 0 min 0,000 mm 0,0 UV-I 0 W/m 15,8 C 18,7 C 3,2 km/h (1 Bft) 100,00 %
15.08.2016 21:18 18,6 C 84 % 1017,2 hPa 0,0 l/m 0,9 km/h (0 Bft) NO 44 0 min 0,000 mm 0,0 UV-I 0 W/m 15,8 C 18,6 C 1,6 km/h (1 Bft) 100,00 %
15.08.2016 21:20 18,5 C 84 % 1017,3 hPa 0,0 l/m 0,0 km/h (0 Bft) NO 44 0 min 0,000 mm 0,0 UV-I 0 W/m 15,7 C 18,5 C 1,6 km/h (1 Bft) 100,00 %
15.08.2016 21:22 18,5 C 84 % 1017,3 hPa 0,0 l/m 0,0 km/h (0 Bft) NO 44 0 min 0,000 mm 0,0 UV-I 0 W/m 15,7 C 18,5 C 0,0 km/h (0 Bft) 97,87 %
15.08.2016 21:24 18,5 C 84 % 1017,3 hPa 0,0 l/m 0,0 km/h (0 Bft) NO 44 0 min 0,000 mm 0,0 UV-I 0 W/m 15,7 C 18,5 C 0,0 km/h (0 Bft) 96,00 %
15.08.2016 21:26 18,6 C 84 % 1017,3 hPa 0,0 l/m 1,2 km/h (1 Bft) NO 44 0 min 0,000 mm 0,0 UV-I 0 W/m 15,8 C 18,6 C 3,2 km/h (1 Bft) 97,37 %
15.08.2016 21:28 18,5 C 84 % 1017,3 hPa 0,0 l/m 2,8 km/h (1 Bft) NO 44 0 min 0,000 mm 0,0 UV-I 0 W/m 15,7 C 18,5 C 4,8 km/h (1 Bft) 94,64 %
15.08.2016 21:30 18,4 C 84 % 1017,3 hPa 0,0 l/m 1,2 km/h (1 Bft) NO 44 0 min 0,000 mm 0,0 UV-I 0 W/m 15,6 C 18,4 C 3,2 km/h (1 Bft) 96,00 %
15.08.2016 21:32 18,3 C 85 % 1017,4 hPa 0,0 l/m 0,1 km/h (0 Bft) NO 44 0 min 0,000 mm 0,0 UV-I 0 W/m 15,7 C 18,3 C 1,6 km/h (1 Bft) 95,74 %
15.08.2016 21:34 18,2 C 86 % 1017,4 hPa 0,0 l/m 0,5 km/h (0 Bft) NO 44 0 min 0,000 mm 0,0 UV-I 0 W/m 15,8 C 18,2 C 1,6 km/h (1 Bft) 95,74 %
15.08.2016 21:36 18,2 C 86 % 1017,4 hPa 0,0 l/m 0,9 km/h (0 Bft) NO 44 0 min 0,000 mm 0,0 UV-I 0 W/m 15,8 C 18,2 C 3,2 km/h (1 Bft) 97,56 %
15.08.2016 21:38 18,2 C 86 % 1017,3 hPa 0,0 l/m 1,5 km/h (1 Bft) NO 44 0 min 0,000 mm 0,0 UV-I 0 W/m 15,8 C 18,2 C 3,2 km/h (1 Bft) 94,00 %
15.08.2016 21:40 18,3 C 86 % 1017,4 hPa 0,0 l/m 2,7 km/h (1 Bft) NO 44 0 min 0,000 mm 0,0 UV-I 0 W/m 15,9 C 18,3 C 3,2 km/h (1 Bft) 97,73 %
15.08.2016 21:42 18,3 C 86 % 1017,4 hPa 0,0 l/m 3,0 km/h (1 Bft) NO 44 0 min 0,000 mm 0,0 UV-I 0 W/m 15,9 C 18,3 C 4,8 km/h (1 Bft) 98,00 %
15.08.2016 21:44 18,2 C 86 % 1017,4 hPa 0,0 l/m 2,6 km/h (1 Bft) NO 44 0 min 0,000 mm 0,0 UV-I 0 W/m 15,8 C 18,2 C 4,8 km/h (1 Bft) 97,87 %
15.08.2016 21:46 18,2 C 86 % 1017,4 hPa 0,0 l/m 1,9 km/h (1 Bft) NO 44 0 min 0,000 mm 0,0 UV-I 0 W/m 15,8 C 18,2 C 3,2 km/h (1 Bft) 98,00 %
15.08.2016 21:48 18,1 C 86 % 1017,5 hPa 0,0 l/m 2,1 km/h (1 Bft) NO 44 0 min 0,000 mm 0,0 UV-I 0 W/m 15,7 C 18,1 C 4,8 km/h (1 Bft) 97,87 %
15.08.2016 21:50 18,0 C 87 % 1017,4 hPa 0,0 l/m 4,2 km/h (1 Bft) N-NO 33 0 min 0,000 mm 0,0 UV-I 0 W/m 15,8 C 18,0 C 6,4 km/h (2 Bft) 95,74 %
15.08.2016 21:52 17,9 C 87 % 1017,5 hPa 0,0 l/m 5,3 km/h (1 Bft) N-NO 23 0 min 0,000 mm 0,0 UV-I 0 W/m 15,7 C 17,9 C 8,0 km/h (2 Bft) 97,56 %
15.08.2016 21:54 17,9 C 88 % 1017,4 hPa 0,0 l/m 5,7 km/h (1 Bft) NO 38 0 min 0,000 mm 0,0 UV-I 0 W/m 15,9 C 17,9 C 8,0 km/h (2 Bft) 98,00 %
15.08.2016 21:56 17,9 C 88 % 1017,5 hPa 0,0 l/m 4,8 km/h (1 Bft) N-NO 17 0 min 0,000 mm 0,0 UV-I 0 W/m 15,9 C 17,9 C 8,0 km/h (2 Bft) 97,14 %
15.08.2016 21:58 17,9 C 88 % 1017,4 hPa 0,0 l/m 3,8 km/h (1 Bft) NO 48 0 min 0,000 mm 0,0 UV-I 0 W/m 15,9 C 17,9 C 4,8 km/h (1 Bft) 98,11 %
15.08.2016 22:00 17,9 C 88 % 1017,5 hPa 0,0 l/m 3,7 km/h (1 Bft) NO 48 0 min 0,000 mm 0,0 UV-I 0 W/m 15,9 C 17,9 C 4,8 km/h (1 Bft) 100,00 %
15.08.2016 22:02 17,9 C 88 % 1017,4 hPa 0,0 l/m 2,1 km/h (1 Bft) NO 48 0 min 0,000 mm 0,0 UV-I 0 W/m 15,9 C 17,9 C 3,2 km/h (1 Bft) 100,00 %
15.08.2016 22:04 17,9 C 88 % 1017,4 hPa 0,0 l/m 1,8 km/h (1 Bft) NO 48 0 min 0,000 mm 0,0 UV-I 0 W/m 15,9 C 17,9 C 3,2 km/h (1 Bft) 98,00 %
15.08.2016 22:06 17,8 C 89 % 1017,4 hPa 0,0 l/m 2,3 km/h (1 Bft) NO 48 0 min 0,000 mm 0,0 UV-I 0 W/m 16,0 C 17,8 C 3,2 km/h (1 Bft) 100,00 %
15.08.2016 22:08 17,8 C 89 % 1017,4 hPa 0,0 l/m 2,4 km/h (1 Bft) NO 48 0 min 0,000 mm 0,0 UV-I 0 W/m 16,0 C 17,8 C 4,8 km/h (1 Bft) 98,36 %
15.08.2016 22:10 17,8 C 89 % 1017,4 hPa 0,0 l/m 3,4 km/h (1 Bft) NO 48 0 min 0,000 mm 0,0 UV-I 0 W/m 16,0 C 17,8 C 4,8 km/h (1 Bft) 100,00 %
15.08.2016 22:12 17,8 C 89 % 1017,4 hPa 0,0 l/m 4,0 km/h (1 Bft) NO 48 0 min 0,000 mm 0,0 UV-I 0 W/m 16,0 C 17,8 C 4,8 km/h (1 Bft) 100,00 %
15.08.2016 22:14 17,8 C 89 % 1017,3 hPa 0,0 l/m 2,6 km/h (1 Bft) NO 48 0 min 0,000 mm 0,0 UV-I 0 W/m 16,0 C 17,8 C 3,2 km/h (1 Bft) 98,00 %
15.08.2016 22:16 17,8 C 89 % 1017,3 hPa 0,0 l/m 2,2 km/h (1 Bft) NO 48 0 min 0,000 mm 0,0 UV-I 0 W/m 16,0 C 17,8 C 3,2 km/h (1 Bft) 100,00 %
15.08.2016 22:18 17,8 C 89 % 1017,3 hPa 0,0 l/m 1,9 km/h (1 Bft) NO 48 0 min 0,000 mm 0,0 UV-I 0 W/m 16,0 C 17,8 C 3,2 km/h (1 Bft) 100,00 %
15.08.2016 22:20 17,8 C 89 % 1017,3 hPa 0,0 l/m 0,9 km/h (0 Bft) NO 48 0 min 0,000 mm 0,0 UV-I 0 W/m 16,0 C 17,8 C 1,6 km/h (1 Bft) 98,04 %
15.08.2016 22:22 17,7 C 90 % 1017,3 hPa 0,0 l/m 0,3 km/h (0 Bft) NO 48 0 min 0,000 mm 0,0 UV-I 0 W/m 16,0 C 17,7 C 1,6 km/h (1 Bft) 100,00 %
15.08.2016 22:24 17,7 C 90 % 1017,3 hPa 0,0 l/m 0,4 km/h (0 Bft) NO 48 0 min 0,000 mm 0,0 UV-I 0 W/m 16,0 C 17,7 C 1,6 km/h (1 Bft) 100,00 %
15.08.2016 22:26 17,7 C 89 % 1017,3 hPa 0,0 l/m 0,1 km/h (0 Bft) NO 48 0 min 0,000 mm 0,0 UV-I 0 W/m 15,9 C 17,7 C 1,6 km/h (1 Bft) 100,00 %
15.08.2016 22:28 17,6 C 90 % 1017,4 hPa 0,0 l/m 0,2 km/h (0 Bft) NO 48 0 min 0,000 mm 0,0 UV-I 0 W/m 15,9 C 17,6 C 1,6 km/h (1 Bft) 100,00 %
15.08.2016 22:30 17,5 C 90 % 1017,4 hPa 0,0 l/m 0,0 km/h (0 Bft) NO 48 0 min 0,000 mm 0,0 UV-I 0 W/m 15,8 C 17,5 C 1,6 km/h (1 Bft) 100,00 %
15.08.2016 22:32 17,4 C 90 % 1017,5 hPa 0,0 l/m 0,5 km/h (0 Bft) NO 48 0 min 0,000 mm 0,0 UV-I 0 W/m 15,7 C 17,4 C 1,6 km/h (1 Bft) 100,00 %
15.08.2016 22:34 17,4 C 91 % 1017,4 hPa 0,0 l/m 2,6 km/h (1 Bft) NO 48 0 min 0,000 mm 0,0 UV-I 0 W/m 15,9 C 17,4 C 4,8 km/h (1 Bft) 98,00 %
15.08.2016 22:36 17,5 C 91 % 1017,4 hPa 0,0 l/m 3,5 km/h (1 Bft) NO 48 0 min 0,000 mm 0,0 UV-I 0 W/m 16,0 C 17,5 C 4,8 km/h (1 Bft) 100,00 %
15.08.2016 22:38 17,6 C 91 % 1017,4 hPa 0,0 l/m 3,5 km/h (1 Bft) NO 48 0 min 0,000 mm 0,0 UV-I 0 W/m 16,1 C 17,6 C 4,8 km/h (1 Bft) 97,56 %
15.08.2016 22:40 17,7 C 90 % 1017,3 hPa 0,0 l/m 3,4 km/h (1 Bft) NO 48 0 min 0,000 mm 0,0 UV-I 0 W/m 16,0 C 17,7 C 4,8 km/h (1 Bft) 100,00 %
15.08.2016 22:42 17,7 C 90 % 1017,4 hPa 0,0 l/m 3,4 km/h (1 Bft) NO 48 0 min 0,000 mm 0,0 UV-I 0 W/m 16,0 C 17,7 C 4,8 km/h (1 Bft) 100,00 %
15.08.2016 22:44 17,7 C 90 % 1017,3 hPa 0,0 l/m 2,8 km/h (1 Bft) NO 48 0 min 0,000 mm 0,0 UV-I 0 W/m 16,0 C 17,7 C 4,8 km/h (1 Bft) 97,87 %
15.08.2016 22:46 17,7 C 90 % 1017,4 hPa 0,0 l/m 1,5 km/h (1 Bft) NO 48 0 min 0,000 mm 0,0 UV-I 0 W/m 16,0 C 17,7 C 3,2 km/h (1 Bft) 100,00 %
15.08.2016 22:48 17,7 C 90 % 1017,4 hPa 0,0 l/m 1,1 km/h (1 Bft) NO 48 0 min 0,000 mm 0,0 UV-I 0 W/m 16,0 C 17,7 C 3,2 km/h (1 Bft) 98,11 %
15.08.2016 22:50 17,7 C 90 % 1017,4 hPa 0,0 l/m 1,1 km/h (1 Bft) NO 48 0 min 0,000 mm 0,0 UV-I 0 W/m 16,0 C 17,7 C 1,6 km/h (1 Bft) 95,74 %
15.08.2016 22:52 17,7 C 90 % 1017,4 hPa 0,0 l/m 0,0 km/h (0 Bft) NO 48 0 min 0,000 mm 0,0 UV-I 0 W/m 16,0 C 17,7 C 0,0 km/h (0 Bft) 100,00 %
15.08.2016 22:54 17,6 C 89 % 1017,4 hPa 0,0 l/m 0,0 km/h (0 Bft) NO 48 0 min 0,000 mm 0,0 UV-I 0 W/m 15,8 C 17,6 C 0,0 km/h (0 Bft) 100,00 %
15.08.2016 22:56 17,5 C 90 % 1017,4 hPa 0,0 l/m 0,3 km/h (0 Bft) NO 48 0 min 0,000 mm 0,0 UV-I 0 W/m 15,8 C 17,5 C 1,6 km/h (1 Bft) 98,00 %
15.08.2016 22:58 17,5 C 90 % 1017,3 hPa 0,0 l/m 1,0 km/h (0 Bft) NO 48 0 min 0,000 mm 0,0 UV-I 0 W/m 15,8 C 17,5 C 1,6 km/h (1 Bft) 100,00 %
15.08.2016 23:00 17,5 C 90 % 1017,4 hPa 0,0 l/m 0,0 km/h (0 Bft) NO 48 0 min 0,000 mm 0,0 UV-I 0 W/m 15,8 C 17,5 C 0,0 km/h (0 Bft) 97,92 %
15.08.2016 23:02 17,5 C 90 % 1017,4 hPa 0,0 l/m 0,0 km/h (0 Bft) NO 48 0 min 0,000 mm 0,0 UV-I 0 W/m 15,8 C 17,5 C 0,0 km/h (0 Bft) 97,92 %
15.08.2016 23:04 17,5 C 90 % 1017,4 hPa 0,0 l/m 0,0 km/h (0 Bft) NO 48 0 min 0,000 mm 0,0 UV-I 0 W/m 15,8 C 17,5 C 0,0 km/h (0 Bft) 100,00 %
15.08.2016 23:06 17,4 C 90 % 1017,3 hPa 0,0 l/m 0,0 km/h (0 Bft) NO 48 0 min 0,000 mm 0,0 UV-I 0 W/m 15,7 C 17,4 C 0,0 km/h (0 Bft) 100,00 %
15.08.2016 23:08 17,4 C 90 % 1017,4 hPa 0,0 l/m 0,0 km/h (0 Bft) NO 48 0 min 0,000 mm 0,0 UV-I 0 W/m 15,7 C 17,4 C 0,0 km/h (0 Bft) 100,00 %
15.08.2016 23:10 17,3 C 90 % 1017,3 hPa 0,0 l/m 0,0 km/h (0 Bft) NO 48 0 min 0,000 mm 0,0 UV-I 0 W/m 15,6 C 17,3 C 0,0 km/h (0 Bft) 100,00 %
15.08.2016 23:12 17,3 C 90 % 1017,3 hPa 0,0 l/m 0,0 km/h (0 Bft) NO 48 0 min 0,000 mm 0,0 UV-I 0 W/m 15,6 C 17,3 C 1,6 km/h (1 Bft) 100,00 %
15.08.2016 23:14 17,3 C 91 % 1017,3 hPa 0,0 l/m 0,0 km/h (0 Bft) NO 48 0 min 0,000 mm 0,0 UV-I 0 W/m 15,8 C 17,3 C 0,0 km/h (0 Bft) 100,00 %
15.08.2016 23:16 17,2 C 91 % 1017,3 hPa 0,0 l/m 0,4 km/h (0 Bft) NO 48 0 min 0,000 mm 0,0 UV-I 0 W/m 15,7 C 17,2 C 1,6 km/h (1 Bft) 100,00 %
15.08.2016 23:18 17,2 C 91 % 1017,3 hPa 0,0 l/m 0,4 km/h (0 Bft) NO 48 0 min 0,000 mm 0,0 UV-I 0 W/m 15,7 C 17,2 C 1,6 km/h (1 Bft) 100,00 %
15.08.2016 23:20 17,1 C 91 % 1017,3 hPa 0,0 l/m 1,7 km/h (1 Bft) NO 48 0 min 0,000 mm 0,0 UV-I 0 W/m 15,6 C 17,1 C 3,2 km/h (1 Bft) 100,00 %
15.08.2016 23:22 17,1 C 91 % 1017,3 hPa 0,0 l/m 2,5 km/h (1 Bft) O 81 0 min 0,000 mm 0,0 UV-I 0 W/m 15,6 C 17,1 C 3,2 km/h (1 Bft) 100,00 %
15.08.2016 23:24 17,0 C 90 % 1017,3 hPa 0,0 l/m 3,3 km/h (1 Bft) O 80 0 min 0,000 mm 0,0 UV-I 0 W/m 15,3 C 17,0 C 4,8 km/h (1 Bft) 100,00 %
15.08.2016 23:26 17,0 C 90 % 1017,3 hPa 0,0 l/m 3,4 km/h (1 Bft) O 80 0 min 0,000 mm 0,0 UV-I 0 W/m 15,3 C 17,0 C 4,8 km/h (1 Bft) 97,37 %
15.08.2016 23:28 17,2 C 90 % 1017,3 hPa 0,0 l/m 3,2 km/h (1 Bft) O 79 0 min 0,000 mm 0,0 UV-I 0 W/m 15,5 C 17,2 C 4,8 km/h (1 Bft) 98,00 %
15.08.2016 23:30 17,2 C 89 % 1017,3 hPa 0,0 l/m 0,5 km/h (0 Bft) O-NO 78 0 min 0,000 mm 0,0 UV-I 0 W/m 15,4 C 17,2 C 3,2 km/h (1 Bft) 96,00 %
15.08.2016 23:32 17,1 C 90 % 1017,3 hPa 0,0 l/m 0,1 km/h (0 Bft) O 79 0 min 0,000 mm 0,0 UV-I 0 W/m 15,4 C 17,1 C 1,6 km/h (1 Bft) 97,22 %
15.08.2016 23:34 16,9 C 90 % 1017,3 hPa 0,0 l/m 0,8 km/h (0 Bft) O 79 0 min 0,000 mm 0,0 UV-I 0 W/m 15,2 C 16,9 C 1,6 km/h (1 Bft) 98,18 %
15.08.2016 23:36 16,9 C 91 % 1017,3 hPa 0,0 l/m 1,2 km/h (1 Bft) O 79 0 min 0,000 mm 0,0 UV-I 0 W/m 15,4 C 16,9 C 1,6 km/h (1 Bft) 94,00 %
15.08.2016 23:38 16,8 C 91 % 1017,3 hPa 0,0 l/m 1,1 km/h (1 Bft) O 79 0 min 0,000 mm 0,0 UV-I 0 W/m 15,3 C 16,8 C 1,6 km/h (1 Bft) 97,44 %
15.08.2016 23:40 16,8 C 91 % 1017,4 hPa 0,0 l/m 1,2 km/h (1 Bft) O-NO 78 0 min 0,000 mm 0,0 UV-I 0 W/m 15,3 C 16,8 C 3,2 km/h (1 Bft) 98,11 %
15.08.2016 23:42 16,9 C 90 % 1017,4 hPa 0,0 l/m 2,0 km/h (1 Bft) O 79 0 min 0,000 mm 0,0 UV-I 0 W/m 15,2 C 16,9 C 3,2 km/h (1 Bft) 97,87 %
15.08.2016 23:44 17,1 C 90 % 1017,4 hPa 0,0 l/m 1,9 km/h (1 Bft) O 79 0 min 0,000 mm 0,0 UV-I 0 W/m 15,4 C 17,1 C 3,2 km/h (1 Bft) 95,74 %
15.08.2016 23:46 17,1 C 89 % 1017,3 hPa 0,0 l/m 1,8 km/h (1 Bft) O 79 0 min 0,000 mm 0,0 UV-I 0 W/m 15,3 C 17,1 C 3,2 km/h (1 Bft) 98,00 %
15.08.2016 23:48 17,1 C 89 % 1017,3 hPa 0,0 l/m 1,2 km/h (1 Bft) O 79 0 min 0,000 mm 0,0 UV-I 0 W/m 15,3 C 17,1 C 1,6 km/h (1 Bft) 97,87 %
15.08.2016 23:50 16,8 C 89 % 1017,3 hPa 0,0 l/m 0,4 km/h (0 Bft) O 79 0 min 0,000 mm 0,0 UV-I 0 W/m 15,0 C 16,8 C 1,6 km/h (1 Bft) 97,56 %
15.08.2016 23:52 16,7 C 90 % 1017,3 hPa 0,0 l/m 0,2 km/h (0 Bft) O 79 0 min 0,000 mm 0,0 UV-I 0 W/m 15,0 C 16,7 C 1,6 km/h (1 Bft) 96,00 %
15.08.2016 23:54 16,6 C 90 % 1017,3 hPa 0,0 l/m 0,3 km/h (0 Bft) O 79 0 min 0,000 mm 0,0 UV-I 0 W/m 15,0 C 16,6 C 1,6 km/h (1 Bft) 97,87 %
15.08.2016 23:56 16,5 C 91 % 1017,2 hPa 0,0 l/m 0,0 km/h (0 Bft) O 79 0 min 0,000 mm 0,0 UV-I 0 W/m 15,0 C 16,5 C 0,0 km/h (0 Bft) 93,62 %
15.08.2016 23:58 16,4 C 91 % 1017,2 hPa 0,0 l/m 0,0 km/h (0 Bft) O 79 0 min 0,000 mm 0,0 UV-I 0 W/m 14,9 C 16,4 C 0,0 km/h (0 Bft) 98,00 %
_ Min-Zeit 05:58 16:30 18:04 - 03:36 - - - - - - 05:52 05:58 03:36 15:46
Minimum _ 15,3 C 57 % 1016,8 hPa - 0,0 km/h (0 Bft) - - - - - - 14,4 C 15,3 C 0,0 km/h (0 Bft) 92,00 %
_ Max-Zeit 16:42 02:56 08:36 00:00 10:16 - - 06:10 12:00 13:04 11:24 17:44 16:42 09:50 00:26
Maximum _ 25,1 C 95 % 1019,8 hPa 0,0 l/m 17,9 km/h
NO (3 Bft)
- - 2 min 0,432 mm 5,0 UV-I 794 W/m 17,7 C 25,1 C 25,7 km/h
N-NO (4 Bft)
100,00 %
Durchschnitt _ 19,8 C 79 % 1018,4 hPa #0,0 l/m 5,7 km/h (1 Bft) O-NO - #9:26 h #3,531 mm 2,6 UV-I 353 W/m 15,7 C 19,3 C 9,0 km/h (2 Bft) 98,65 %